Observation data for Colorado City on 06/24/2019      Previous  Date  Next       Current Mesonet Observations  Soil Data  Daily Summary Page  Observations in Plain Language
KCO2 240500Z 07008KT 25/17 A2985 RMK A01 T02500172  RH  062%=      5-min Rain = 0
KCO2 240501Z 07008KT 25/17 A2985 RMK A01 T02500172  RH  062%=      5-min Rain = 0
KCO2 240502Z 07008KT 25/17 A2985 RMK A01 T02500172  RH  062%=      5-min Rain = 0
KCO2 240503Z 07009KT 25/17 A2985 RMK A01 T02500172  RH  062%=      5-min Rain = 0
KCO2 240504Z 07009KT 25/17 A2985 RMK A01 T02490172  RH  062%=      5-min Rain = 0
KCO2 240505Z 07009KT 25/17 A2985 RMK A01 T02490172  RH  062%=      5-min Rain = 0
KCO2 240506Z 07009KT 25/17 A2985 RMK A01 T02490171  RH  062%=      5-min Rain = 0
KCO2 240507Z 08010KT 25/17 A2985 RMK A01 T02490172  RH  062%=      5-min Rain = 0
KCO2 240508Z 07010KT 25/17 A2985 RMK A01 T02490172  RH  062%=      5-min Rain = 0
KCO2 240509Z 08009KT 25/17 A2985 RMK A01 T02490172  RH  062%=      5-min Rain = 0
KCO2 240510Z 08009KT 25/17 A2985 RMK A01 T02490172  RH  062%=      5-min Rain = 0
KCO2 240511Z 08009KT 25/17 A2985 RMK A01 T02480172  RH  062%=      5-min Rain = 0
KCO2 240512Z 08009KT 25/17 A2985 RMK A01 T02490172  RH  062%=      5-min Rain = 0
KCO2 240513Z 08009KT 25/17 A2985 RMK A01 T02480172  RH  063%=      5-min Rain = 0
KCO2 240514Z 08010KT 25/17 A2985 RMK A01 T02470172  RH  063%=      5-min Rain = 0
KCO2 240515Z 08009KT 25/17 A2985 RMK A01 T02470172  RH  063%=      5-min Rain = 0
KCO2 240516Z 08010KT 25/17 A2985 RMK A01 T02470171  RH  063%=      5-min Rain = 0
KCO2 240517Z 08009KT 25/17 A2985 RMK A01 T02470171  RH  063%=      5-min Rain = 0
KCO2 240518Z 07010KT 25/17 A2985 RMK A01 T02470172  RH  063%=      5-min Rain = 0
KCO2 240519Z 08010KT 25/17 A2985 RMK A01 T02470172  RH  063%=      5-min Rain = 0
KCO2 240520Z 08010KT 25/17 A2985 RMK A01 T02470172  RH  063%=      5-min Rain = 0
KCO2 240521Z 07010KT 25/17 A2985 RMK A01 T02480172  RH  063%=      5-min Rain = 0
KCO2 240522Z 08010KT 25/17 A2985 RMK A01 T02470172  RH  063%=      5-min Rain = 0
KCO2 240523Z 08009KT 25/17 A2985 RMK A01 T02480172  RH  063%=      5-min Rain = 0
KCO2 240524Z 08009KT 25/17 A2985 RMK A01 T02480172  RH  063%=      5-min Rain = 0
KCO2 240525Z 08010KT 25/17 A2985 RMK A01 T02470173  RH  063%=      5-min Rain = 0
KCO2 240526Z 08010KT 25/17 A2985 RMK A01 T02470172  RH  063%=      5-min Rain = 0
KCO2 240527Z 08009KT 25/17 A2985 RMK A01 T02470172  RH  063%=      5-min Rain = 0
KCO2 240528Z 08009KT 25/17 A2985 RMK A01 T02460172  RH  063%=      5-min Rain = 0
KCO2 240529Z 08010KT 25/17 A2985 RMK A01 T02460172  RH  063%=      5-min Rain = 0
KCO2 240530Z 08009KT 25/17 A2985 RMK A01 T02450172  RH  064%=      5-min Rain = 0
KCO2 240531Z 08008KT 25/17 A2985 RMK A01 T02450171  RH  064%=      5-min Rain = 0
KCO2 240532Z 08008KT 25/17 A2985 RMK A01 T02450171  RH  064%=      5-min Rain = 0
KCO2 240533Z 08008KT 24/17 A2985 RMK A01 T02440171  RH  064%=      5-min Rain = 0
KCO2 240534Z 08008KT 24/17 A2985 RMK A01 T02430171  RH  064%=      5-min Rain = 0
KCO2 240535Z 08008KT 24/17 A2986 RMK A01 T02430171  RH  064%=      5-min Rain = 0
KCO2 240536Z 09009KT 24/17 A2986 RMK A01 T02420171  RH  064%=      5-min Rain = 0
KCO2 240537Z 09009KT 24/17 A2986 RMK A01 T02410170  RH  064%=      5-min Rain = 0
KCO2 240538Z 09009KT 24/17 A2986 RMK A01 T02420169  RH  064%=      5-min Rain = 0
KCO2 240539Z 08008KT 24/17 A2986 RMK A01 T02420169  RH  064%=      5-min Rain = 0
KCO2 240540Z 09008KT 24/17 A2986 RMK A01 T02420169  RH  064%=      5-min Rain = 0
KCO2 240541Z 09010KT 24/17 A2986 RMK A01 T02420169  RH  064%=      5-min Rain = 0
KCO2 240542Z 09009KT 24/17 A2985 RMK A01 T02420169  RH  063%=      5-min Rain = 0
KCO2 240543Z 09009KT 24/17 A2985 RMK A01 T02430169  RH  063%=      5-min Rain = 0
KCO2 240544Z 09008KT 24/17 A2985 RMK A01 T02430169  RH  063%=      5-min Rain = 0
KCO2 240545Z 09008KT 24/17 A2985 RMK A01 T02430169  RH  063%=      5-min Rain = 0
KCO2 240546Z 08009KT 24/17 A2985 RMK A01 T02420169  RH  063%=      5-min Rain = 0
KCO2 240547Z 09010KT 24/17 A2985 RMK A01 T02420169  RH  064%=      5-min Rain = 0
KCO2 240548Z 09011KT 24/17 A2985 RMK A01 T02420169  RH  064%=      5-min Rain = 0
KCO2 240549Z 09009KT 24/17 A2985 RMK A01 T02420169  RH  064%=      5-min Rain = 0
KCO2 240550Z 09010KT 24/17 A2985 RMK A01 T02420169  RH  064%=      5-min Rain = 0
KCO2 240551Z 09009KT 24/17 A2985 RMK A01 T02430169  RH  064%=      5-min Rain = 0
KCO2 240552Z 09010KT 24/17 A2985 RMK A01 T02420170  RH  064%=      5-min Rain = 0
KCO2 240553Z 09009KT 24/17 A2985 RMK A01 T02420170  RH  064%=      5-min Rain = 0
KCO2 240554Z 09009KT 24/17 A2985 RMK A01 T02420170  RH  064%=      5-min Rain = 0
KCO2 240555Z 09009KT 24/17 A2985 RMK A01 T02420170  RH  064%=      5-min Rain = 0
KCO2 240556Z 08009KT 24/17 A2985 RMK A01 T02420170  RH  064%=      5-min Rain = 0
KCO2 240557Z 09008KT 24/17 A2985 RMK A01 T02420170  RH  064%=      5-min Rain = 0
KCO2 240558Z 09009KT 24/17 A2985 RMK A01 T02410170  RH  065%=      5-min Rain = 0
KCO2 240559Z 09008KT 24/17 A2985 RMK A01 T02410171  RH  065%=      5-min Rain = 0
KCO2 240600Z 09008KT 24/17 A2985 RMK A01 T02400171  RH  065%=      5-min Rain = 0
KCO2 240601Z 09008KT 24/17 A2985 RMK A01 T02400171  RH  065%=      5-min Rain = 0
KCO2 240602Z 09008KT 24/17 A2985 RMK A01 T02390171  RH  065%=      5-min Rain = 0
KCO2 240603Z 09008KT 24/17 A2985 RMK A01 T02390171  RH  066%=      5-min Rain = 0
KCO2 240604Z 09008KT 24/17 A2985 RMK A01 T02380171  RH  066%=      5-min Rain = 0
KCO2 240605Z 09008KT 24/17 A2985 RMK A01 T02380171  RH  066%=      5-min Rain = 0
KCO2 240606Z 09008KT 24/17 A2985 RMK A01 T02370171  RH  067%=      5-min Rain = 0
KCO2 240607Z 09007KT 24/17 A2985 RMK A01 T02360171  RH  067%=      5-min Rain = 0
KCO2 240608Z 09008KT 24/17 A2985 RMK A01 T02360172  RH  067%=      5-min Rain = 0
KCO2 240609Z 09007KT 24/17 A2985 RMK A01 T02360171  RH  067%=      5-min Rain = 0
KCO2 240610Z 09007KT 24/17 A2985 RMK A01 T02350172  RH  067%=      5-min Rain = 0
KCO2 240611Z 09007KT 23/17 A2985 RMK A01 T02340172  RH  068%=      5-min Rain = 0
KCO2 240612Z 09007KT 23/17 A2985 RMK A01 T02340172  RH  068%=      5-min Rain = 0
KCO2 240613Z 09007KT 23/17 A2984 RMK A01 T02340172  RH  068%=      5-min Rain = 0
KCO2 240614Z 09007KT 23/17 A2984 RMK A01 T02330172  RH  069%=      5-min Rain = 0
KCO2 240615Z 09007KT 23/17 A2984 RMK A01 T02320172  RH  069%=      5-min Rain = 0
KCO2 240616Z 09007KT 23/17 A2984 RMK A01 T02310172  RH  069%=      5-min Rain = 0
KCO2 240617Z 10007KT 23/17 A2984 RMK A01 T02300172  RH  070%=      5-min Rain = 0
KCO2 240618Z 10006KT 23/17 A2984 RMK A01 T02300172  RH  070%=      5-min Rain = 0
KCO2 240619Z 11006KT 23/17 A2984 RMK A01 T02280172  RH  071%=      5-min Rain = 0
KCO2 240620Z 11006KT 23/17 A2984 RMK A01 T02260172  RH  071%=      5-min Rain = 0
KCO2 240621Z 12006KT 22/17 A2984 RMK A01 T02240172  RH  072%=      5-min Rain = 0
KCO2 240622Z 12005KT 22/17 A2985 RMK A01 T02230172  RH  073%=      5-min Rain = 0
KCO2 240623Z 12005KT 22/17 A2985 RMK A01 T02220172  RH  073%=      5-min Rain = 0
KCO2 240624Z 13004KT 22/17 A2985 RMK A01 T02210171  RH  073%=      5-min Rain = 0
KCO2 240625Z 14003KT 22/17 A2985 RMK A01 T02190171  RH  074%=      5-min Rain = 0
KCO2 240626Z 13003KT 22/17 A2985 RMK A01 T02180172  RH  075%=      5-min Rain = 0
KCO2 240627Z 14003KT 22/17 A2985 RMK A01 T02160171  RH  076%=      5-min Rain = 0
KCO2 240628Z 14003KT 22/17 A2985 RMK A01 T02150171  RH  076%=      5-min Rain = 0
KCO2 240629Z 13004KT 21/17 A2985 RMK A01 T02140171  RH  077%=      5-min Rain = 0
KCO2 240630Z 13004KT 21/17 A2985 RMK A01 T02140171  RH  077%=      5-min Rain = 0
KCO2 240631Z 14004KT 21/17 A2985 RMK A01 T02130171  RH  077%=      5-min Rain = 0
KCO2 240632Z 14003KT 21/17 A2985 RMK A01 T02120171  RH  077%=      5-min Rain = 0
KCO2 240633Z 15003KT 21/17 A2985 RMK A01 T02120171  RH  077%=      5-min Rain = 0
KCO2 240634Z 15003KT 21/17 A2985 RMK A01 T02120171  RH  078%=      5-min Rain = 0
KCO2 240635Z 14003KT 21/17 A2985 RMK A01 T02120171  RH  078%=      5-min Rain = 0
KCO2 240636Z 15003KT 21/17 A2985 RMK A01 T02120171  RH  078%=      5-min Rain = 0
KCO2 240637Z 16003KT 21/17 A2985 RMK A01 T02120171  RH  078%=      5-min Rain = 0
KCO2 240638Z 15003KT 21/17 A2985 RMK A01 T02130172  RH  077%=      5-min Rain = 0
KCO2 240639Z 14003KT 21/17 A2985 RMK A01 T02140171  RH  077%=      5-min Rain = 0
KCO2 240640Z 14004KT 22/17 A2985 RMK A01 T02160172  RH  076%=      5-min Rain = 0
KCO2 240641Z 14004KT 22/17 A2985 RMK A01 T02160171  RH  075%=      5-min Rain = 0
KCO2 240642Z 13004KT 22/17 A2985 RMK A01 T02160171  RH  075%=      5-min Rain = 0
KCO2 240643Z 14004KT 22/17 A2985 RMK A01 T02160170  RH  075%=      5-min Rain = 0
KCO2 240644Z 14005KT 22/17 A2985 RMK A01 T02150169  RH  075%=      5-min Rain = 0
KCO2 240645Z 14005KT 22/17 A2985 RMK A01 T02150169  RH  075%=      5-min Rain = 0
KCO2 240646Z 13005KT 21/17 A2985 RMK A01 T02130168  RH  075%=      5-min Rain = 0
KCO2 240647Z 14006KT 21/17 A2985 RMK A01 T02110168  RH  076%=      5-min Rain = 0
KCO2 240648Z 14006KT 21/17 A2985 RMK A01 T02080167  RH  077%=      5-min Rain = 0
KCO2 240649Z 14006KT 21/17 A2985 RMK A01 T02060167  RH  078%=      5-min Rain = 0
KCO2 240650Z 15006KT 20/17 A2985 RMK A01 T02040167  RH  079%=      5-min Rain = 0
KCO2 240651Z 15005KT 20/17 A2985 RMK A01 T02030168  RH  080%=      5-min Rain = 0
KCO2 240652Z 16005KT 20/17 A2985 RMK A01 T02020168  RH  081%=      5-min Rain = 0
KCO2 240653Z 16005KT 20/17 A2985 RMK A01 T02010168  RH  081%=      5-min Rain = 0
KCO2 240654Z 16005KT 20/17 A2985 RMK A01 T02010168  RH  081%=      5-min Rain = 0
KCO2 240655Z 16005KT 20/17 A2985 RMK A01 T02010168  RH  082%=      5-min Rain = 0
KCO2 240656Z 16005KT 20/17 A2985 RMK A01 T02010169  RH  082%=      5-min Rain = 0
KCO2 240657Z 16005KT 20/17 A2985 RMK A01 T02020169  RH  081%=      5-min Rain = 0
KCO2 240658Z 16006KT 20/17 A2985 RMK A01 T02020169  RH  081%=      5-min Rain = 0
KCO2 240659Z 16006KT 20/17 A2985 RMK A01 T02020170  RH  082%=      5-min Rain = 0
KCO2 240700Z 16005KT 20/17 A2985 RMK A01 T02020171  RH  082%=      5-min Rain = 0
KCO2 240701Z 16006KT 20/17 A2985 RMK A01 T02020172  RH  083%=      5-min Rain = 0
KCO2 240702Z 15006KT 20/17 A2985 RMK A01 T02020172  RH  083%=      5-min Rain = 0
KCO2 240703Z 15006KT 20/17 A2985 RMK A01 T02020173  RH  083%=      5-min Rain = 0
KCO2 240704Z 16005KT 20/17 A2985 RMK A01 T02030174  RH  083%=      5-min Rain = 0
KCO2 240705Z 16005KT 20/17 A2985 RMK A01 T02030174  RH  083%=      5-min Rain = 0
KCO2 240706Z 16004KT 20/17 A2985 RMK A01 T02030174  RH  083%=      5-min Rain = 0
KCO2 240707Z 16004KT 20/17 A2985 RMK A01 T02030174  RH  084%=      5-min Rain = 0
KCO2 240708Z 16004KT 20/18 A2985 RMK A01 T02030175  RH  084%=      5-min Rain = 0
KCO2 240709Z 16004KT 20/18 A2985 RMK A01 T02030175  RH  084%=      5-min Rain = 0
KCO2 240710Z 15004KT 20/18 A2985 RMK A01 T02030175  RH  084%=      5-min Rain = 0
KCO2 240711Z 15004KT 20/18 A2985 RMK A01 T02040175  RH  083%=      5-min Rain = 0
KCO2 240712Z 15004KT 20/18 A2985 RMK A01 T02040175  RH  083%=      5-min Rain = 0
KCO2 240713Z 15004KT 20/17 A2985 RMK A01 T02040174  RH  083%=      5-min Rain = 0
KCO2 240714Z 15004KT 20/18 A2985 RMK A01 T02040175  RH  083%=      5-min Rain = 0
KCO2 240715Z 14004KT 20/18 A2985 RMK A01 T02040175  RH  083%=      5-min Rain = 0
KCO2 240716Z 13004KT 20/18 A2985 RMK A01 T02040176  RH  084%=      5-min Rain = 0
KCO2 240717Z 13004KT 21/18 A2985 RMK A01 T02050176  RH  083%=      5-min Rain = 0
KCO2 240718Z 13004KT 21/18 A2985 RMK A01 T02060177  RH  083%=      5-min Rain = 0
KCO2 240719Z 14004KT 21/18 A2985 RMK A01 T02070177  RH  083%=      5-min Rain = 0
KCO2 240720Z 14005KT 21/18 A2985 RMK A01 T02070178  RH  083%=      5-min Rain = 0
KCO2 240721Z 14004KT 21/18 A2985 RMK A01 T02070178  RH  083%=      5-min Rain = 0
KCO2 240722Z 14004KT 21/18 A2985 RMK A01 T02060177  RH  084%=      5-min Rain = 0
KCO2 240723Z 14004KT 21/18 A2985 RMK A01 T02060177  RH  084%=      5-min Rain = 0
KCO2 240724Z 14004KT 21/18 A2985 RMK A01 T02050177  RH  084%=      5-min Rain = 0
KCO2 240725Z 15004KT 20/18 A2985 RMK A01 T02040177  RH  085%=      5-min Rain = 0
KCO2 240726Z 15004KT 20/18 A2985 RMK A01 T02040177  RH  085%=      5-min Rain = 0
KCO2 240727Z 15004KT 20/18 A2985 RMK A01 T02030177  RH  085%=      5-min Rain = 0
KCO2 240728Z 15005KT 20/18 A2985 RMK A01 T02020176  RH  085%=      5-min Rain = 0
KCO2 240729Z 15005KT 20/18 A2985 RMK A01 T02010175  RH  085%=      5-min Rain = 0
KCO2 240730Z 16005KT 20/18 A2985 RMK A01 T02000175  RH  086%=      5-min Rain = 0
KCO2 240731Z 16005KT 20/18 A2985 RMK A01 T01990175  RH  086%=      5-min Rain = 0
KCO2 240732Z 15005KT 20/17 A2985 RMK A01 T01980174  RH  086%=      5-min Rain = 0
KCO2 240733Z 15005KT 20/17 A2985 RMK A01 T01970174  RH  087%=      5-min Rain = 0
KCO2 240734Z 15005KT 20/18 A2985 RMK A01 T01970176  RH  088%=      5-min Rain = 0
KCO2 240735Z 15005KT 20/18 A2985 RMK A01 T01970176  RH  088%=      5-min Rain = 0
KCO2 240736Z 15005KT 20/18 A2985 RMK A01 T01960175  RH  088%=      5-min Rain = 0
KCO2 240737Z 15005KT 20/18 A2985 RMK A01 T01960176  RH  088%=      5-min Rain = 0
KCO2 240738Z 15005KT 20/18 A2985 RMK A01 T01960178  RH  089%=      5-min Rain = 0
KCO2 240739Z 15006KT 20/18 A2985 RMK A01 T01970179  RH  090%=      5-min Rain = 0
KCO2 240740Z 16005KT 20/18 A2985 RMK A01 T01980180  RH  089%=      5-min Rain = 0
KCO2 240741Z 16005KT 20/18 A2985 RMK A01 T01990179  RH  088%=      5-min Rain = 0
KCO2 240742Z 16005KT 20/18 A2985 RMK A01 T01990179  RH  088%=      5-min Rain = 0
KCO2 240743Z 17005KT 20/18 A2985 RMK A01 T01990179  RH  088%=      5-min Rain = 0
KCO2 240744Z 17005KT 20/18 A2985 RMK A01 T01990180  RH  089%=      5-min Rain = 0
KCO2 240745Z 17004KT 20/18 A2985 RMK A01 T01990181  RH  089%=      5-min Rain = 0
KCO2 240746Z 16004KT 20/18 A2985 RMK A01 T01990181  RH  089%=      5-min Rain = 0
KCO2 240747Z 17003KT 20/18 A2985 RMK A01 T01990181  RH  089%=      5-min Rain = 0
KCO2 240748Z 16003KT 20/18 A2985 RMK A01 T01990180  RH  089%=      5-min Rain = 0
KCO2 240749Z 17002KT 20/18 A2985 RMK A01 T01990181  RH  089%=      5-min Rain = 0
KCO2 240750Z 18002KT 20/18 A2985 RMK A01 T01990182  RH  090%=      5-min Rain = 0
KCO2 240751Z 19002KT 20/18 A2985 RMK A01 T01990182  RH  090%=      5-min Rain = 0
KCO2 240752Z 19002KT 20/18 A2985 RMK A01 T01990183  RH  090%=      5-min Rain = 0
KCO2 240753Z 19002KT 20/18 A2985 RMK A01 T01990183  RH  090%=      5-min Rain = 0
KCO2 240754Z 18002KT 20/18 A2985 RMK A01 T01990183  RH  090%=      5-min Rain = 0
KCO2 240755Z 18001KT 20/18 A2985 RMK A01 T02000184  RH  091%=      5-min Rain = 0
KCO2 240756Z 17001KT 20/18 A2985 RMK A01 T02010184  RH  090%=      5-min Rain = 0
KCO2 240757Z 17001KT 20/18 A2985 RMK A01 T02010181  RH  088%=      5-min Rain = 0
KCO2 240758Z 18001KT 20/18 A2985 RMK A01 T02010178  RH  087%=      5-min Rain = 0
KCO2 240759Z 18001KT 20/18 A2985 RMK A01 T02000177  RH  087%=      5-min Rain = 0
KCO2 240800Z 18000KT 20/18 A2985 RMK A01 T01990178  RH  087%=      5-min Rain = 0
KCO2 240801Z 00000KT 20/18 A2985 RMK A01 T02000178  RH  087%=      5-min Rain = 0
KCO2 240802Z 00000KT 20/18 A2985 RMK A01 T01990176  RH  086%=      5-min Rain = 0
KCO2 240803Z 15000KT 20/18 A2985 RMK A01 T01990175  RH  086%=      5-min Rain = 0
KCO2 240804Z 14001KT 20/18 A2985 RMK A01 T01990175  RH  086%=      5-min Rain = 0
KCO2 240805Z 13001KT 20/18 A2985 RMK A01 T01980176  RH  087%=      5-min Rain = 0
KCO2 240806Z 14002KT 20/18 A2985 RMK A01 T01990177  RH  087%=      5-min Rain = 0
KCO2 240807Z 15002KT 20/18 A2985 RMK A01 T02010179  RH  087%=      5-min Rain = 0
KCO2 240808Z 15002KT 20/18 A2985 RMK A01 T02010180  RH  088%=      5-min Rain = 0
KCO2 240809Z 13002KT 20/18 A2985 RMK A01 T02030181  RH  087%=      5-min Rain = 0
KCO2 240810Z 13002KT 20/18 A2985 RMK A01 T02040178  RH  085%=      5-min Rain = 0
KCO2 240811Z 14002KT 20/18 A2985 RMK A01 T02040176  RH  084%=      5-min Rain = 0
KCO2 240812Z 14003KT 20/18 A2985 RMK A01 T02040177  RH  084%=      5-min Rain = 0
KCO2 240813Z 14003KT 20/18 A2985 RMK A01 T02040178  RH  085%=      5-min Rain = 0
KCO2 240814Z 15003KT 20/18 A2985 RMK A01 T02040177  RH  085%=      5-min Rain = 0
KCO2 240815Z 15003KT 20/18 A2985 RMK A01 T02030177  RH  085%=      5-min Rain = 0
KCO2 240816Z 15002KT 20/18 A2985 RMK A01 T02030179  RH  086%=      5-min Rain = 0
KCO2 240817Z 13002KT 20/18 A2985 RMK A01 T02030179  RH  086%=      5-min Rain = 0
KCO2 240818Z 13002KT 20/18 A2985 RMK A01 T02030177  RH  085%=      5-min Rain = 0
KCO2 240819Z 14002KT 20/18 A2985 RMK A01 T02030176  RH  085%=      5-min Rain = 0
KCO2 240820Z 13002KT 20/18 A2985 RMK A01 T02010175  RH  085%=      5-min Rain = 0
KCO2 240821Z 13001KT 20/18 A2985 RMK A01 T02000175  RH  086%=      5-min Rain = 0
KCO2 240822Z 13001KT 20/18 A2985 RMK A01 T01990175  RH  086%=      5-min Rain = 0
KCO2 240823Z 12001KT 20/17 A2985 RMK A01 T01980174  RH  086%=      5-min Rain = 0
KCO2 240824Z 10001KT 20/17 A2985 RMK A01 T01970174  RH  086%=      5-min Rain = 0
KCO2 240825Z 10001KT 20/17 A2985 RMK A01 T01960173  RH  087%=      5-min Rain = 0
KCO2 240826Z 13000KT 20/17 A2985 RMK A01 T01950173  RH  087%=      5-min Rain = 0
KCO2 240827Z 00000KT 19/17 A2985 RMK A01 T01940174  RH  088%=      5-min Rain = 0
KCO2 240828Z 00000KT 19/17 A2985 RMK A01 T01940173  RH  088%=      5-min Rain = 0
KCO2 240829Z 00000KT 19/18 A2985 RMK A01 T01930175  RH  089%=      5-min Rain = 0
KCO2 240830Z 00000KT 19/18 A2985 RMK A01 T01930176  RH  090%=      5-min Rain = 0
KCO2 240831Z 00000KT 19/18 A2985 RMK A01 T01940176  RH  090%=      5-min Rain = 0
KCO2 240832Z 00000KT 19/18 A2985 RMK A01 T01930177  RH  090%=      5-min Rain = 0
KCO2 240833Z 01000KT 19/18 A2985 RMK A01 T01940175  RH  089%=      5-min Rain = 0
KCO2 240834Z 02001KT 19/17 A2985 RMK A01 T01940174  RH  088%=      5-min Rain = 0
KCO2 240835Z 02001KT 19/17 A2985 RMK A01 T01930174  RH  089%=      5-min Rain = 0
KCO2 240836Z 02002KT 19/18 A2985 RMK A01 T01930175  RH  089%=      5-min Rain = 0
KCO2 240837Z 03003KT 19/18 A2985 RMK A01 T01930175  RH  090%=      5-min Rain = 0
KCO2 240838Z 03004KT 19/18 A2985 RMK A01 T01930175  RH  089%=      5-min Rain = 0
KCO2 240839Z 03005KT 19/18 A2985 RMK A01 T01920175  RH  090%=      5-min Rain = 0
KCO2 240840Z 03005KT 19/18 A2985 RMK A01 T01910175  RH  090%=      5-min Rain = 0
KCO2 240841Z 03006KT 19/18 A2985 RMK A01 T01910176  RH  091%=      5-min Rain = 0
KCO2 240842Z 03005KT 19/18 A2986 RMK A01 T01910177  RH  091%=      5-min Rain = 0
KCO2 240843Z 03006KT 19/18 A2986 RMK A01 T01910176  RH  091%=      5-min Rain = 0
KCO2 240844Z 02006KT 19/18 A2986 RMK A01 T01910176  RH  091%=      5-min Rain = 0
KCO2 240845Z 01007KT 19/18 A2986 RMK A01 T01900176  RH  091%=      5-min Rain = 0
KCO2 240846Z 01007KT 19/18 A2986 RMK A01 T01890176  RH  092%=      5-min Rain = 0
KCO2 240847Z 01008KT 19/18 A2986 RMK A01 T01890176  RH  092%=      5-min Rain = 0
KCO2 240848Z 01009KT 19/18 A2987 RMK A01 T01890177  RH  093%=      5-min Rain = 0
KCO2 240849Z 01009KT 19/18 A2987 RMK A01 T01890177  RH  093%=      5-min Rain = 0
KCO2 240850Z 01009KT 19/18 A2987 RMK A01 T01890178  RH  093%=      5-min Rain = 0
KCO2 240851Z 02008KT 19/18 A2987 RMK A01 T01900178  RH  093%=      5-min Rain = 0
KCO2 240852Z 02008KT 19/18 A2987 RMK A01 T01900177  RH  092%=      5-min Rain = 0
KCO2 240853Z 02007KT 19/18 A2987 RMK A01 T01900176  RH  092%=      5-min Rain = 0
KCO2 240854Z 02007KT 19/18 A2987 RMK A01 T01900176  RH  091%=      5-min Rain = 0
KCO2 240855Z 02007KT 19/18 A2987 RMK A01 T01900176  RH  091%=      5-min Rain = 0
KCO2 240856Z 02007KT 19/18 A2987 RMK A01 T01900176  RH  091%=      5-min Rain = 0
KCO2 240857Z 02007KT 19/18 A2987 RMK A01 T01900176  RH  091%=      5-min Rain = 0
KCO2 240858Z 02007KT 19/18 A2987 RMK A01 T01900176  RH  091%=      5-min Rain = 0
KCO2 240859Z 02006KT 19/18 A2987 RMK A01 T01900176  RH  091%=      5-min Rain = 0
KCO2 240900Z 02006KT 19/18 A2987 RMK A01 T01900176  RH  091%=      5-min Rain = 0
KCO2 240901Z 03005KT 19/18 A2987 RMK A01 T01900176  RH  091%=      5-min Rain = 0
KCO2 240902Z 03006KT 19/18 A2987 RMK A01 T01900176  RH  092%=      5-min Rain = 0
KCO2 240903Z 02006KT 19/18 A2987 RMK A01 T01900176  RH  092%=      5-min Rain = 0
KCO2 240904Z 02006KT 19/18 A2987 RMK A01 T01900176  RH  091%=      5-min Rain = 0
KCO2 240905Z 02006KT 19/18 A2987 RMK A01 T01900176  RH  091%=      5-min Rain = 0
KCO2 240906Z 02007KT 19/18 A2987 RMK A01 T01900176  RH  091%=      5-min Rain = 0
KCO2 240907Z 02006KT 19/18 A2987 RMK A01 T01900175  RH  091%=      5-min Rain = 0
KCO2 240908Z 02005KT 19/18 A2987 RMK A01 T01890176  RH  092%=      5-min Rain = 0
KCO2 240909Z 02005KT 19/18 A2987 RMK A01 T01890176  RH  092%=      5-min Rain = 0
KCO2 240910Z 03006KT 19/18 A2987 RMK A01 T01900176  RH  092%=      5-min Rain = 0
KCO2 240911Z 03006KT 19/18 A2987 RMK A01 T01900176  RH  092%=      5-min Rain = 0
KCO2 240912Z 04006KT 19/18 A2987 RMK A01 T01900177  RH  092%=      5-min Rain = 0
KCO2 240913Z 03006KT 19/18 A2987 RMK A01 T01900177  RH  092%=      5-min Rain = 0
KCO2 240914Z 03007KT 19/18 A2987 RMK A01 T01910177  RH  092%=      5-min Rain = 0
KCO2 240915Z 03006KT 19/18 A2987 RMK A01 T01910178  RH  092%=      5-min Rain = 0
KCO2 240916Z 02006KT 19/18 A2987 RMK A01 T01910178  RH  092%=      5-min Rain = 0
KCO2 240917Z 02007KT 19/18 A2987 RMK A01 T01910178  RH  092%=      5-min Rain = 0
KCO2 240918Z 02007KT 19/18 A2987 RMK A01 T01910179  RH  092%=      5-min Rain = 0
KCO2 240919Z 02008KT 19/18 A2987 RMK A01 T01910179  RH  093%=      5-min Rain = 0
KCO2 240920Z 02009KT 19/18 A2988 RMK A01 T01910180  RH  093%=      5-min Rain = 0
KCO2 240921Z 02009KT 19/18 A2988 RMK A01 T01910180  RH  093%=      5-min Rain = 0
KCO2 240922Z 03009KT 19/18 A2988 RMK A01 T01920182  RH  094%=      5-min Rain = 0
KCO2 240923Z 03009KT 19/18 A2988 RMK A01 T01940183  RH  094%=      5-min Rain = 0
KCO2 240924Z 04009KT 20/18 A2988 RMK A01 T01950184  RH  094%=      5-min Rain = 0
KCO2 240925Z 04008KT 20/19 A2988 RMK A01 T01960185  RH  093%=      5-min Rain = 0
KCO2 240926Z 04008KT 20/19 A2988 RMK A01 T01970186  RH  093%=      5-min Rain = 0
KCO2 240927Z 04008KT 20/19 A2988 RMK A01 T01970186  RH  093%=      5-min Rain = 0
KCO2 240928Z 04008KT 20/19 A2988 RMK A01 T01970185  RH  093%=      5-min Rain = 0
KCO2 240929Z 04008KT 20/19 A2988 RMK A01 T01970186  RH  093%=      5-min Rain = 0
KCO2 240930Z 04007KT 20/19 A2988 RMK A01 T01980186  RH  093%=      5-min Rain = 0
KCO2 240931Z 04007KT 20/19 A2988 RMK A01 T01980187  RH  093%=      5-min Rain = 0
KCO2 240932Z 04007KT 20/19 A2988 RMK A01 T01990187  RH  093%=      5-min Rain = 0
KCO2 240933Z 04008KT 20/19 A2988 RMK A01 T01990187  RH  093%=      5-min Rain = 0
KCO2 240934Z 04007KT 20/19 A2987 RMK A01 T01990187  RH  093%=      5-min Rain = 0
KCO2 240935Z 04008KT 20/19 A2987 RMK A01 T02000187  RH  092%=      5-min Rain = 0
KCO2 240936Z 03008KT 20/19 A2988 RMK A01 T02000187  RH  092%=      5-min Rain = 0
KCO2 240937Z 03008KT 20/19 A2988 RMK A01 T02000187  RH  092%=      5-min Rain = 0
KCO2 240938Z 03008KT 20/19 A2988 RMK A01 T02010187  RH  092%=      5-min Rain = 0
KCO2 240939Z 03008KT 20/19 A2988 RMK A01 T02010187  RH  092%=      5-min Rain = 0
KCO2 240940Z 03006KT 20/19 A2988 RMK A01 T02010186  RH  091%=      5-min Rain = 0
KCO2 240941Z 03007KT 20/19 A2988 RMK A01 T02010186  RH  091%=      5-min Rain = 0
KCO2 240942Z 03009KT 20/19 A2988 RMK A01 T02010186  RH  091%=      5-min Rain = 0
KCO2 240943Z 04008KT 20/19 A2988 RMK A01 T02000186  RH  091%=      5-min Rain = 0
KCO2 240944Z 04009KT 20/19 A2988 RMK A01 T02000186  RH  091%=      5-min Rain = 0
KCO2 240945Z 04009KT 20/19 A2988 RMK A01 T02010186  RH  092%=      5-min Rain = 0
KCO2 240946Z 04008KT 20/19 A2988 RMK A01 T02010187  RH  092%=      5-min Rain = 0
KCO2 240947Z 04009KT 20/19 A2989 RMK A01 T02010187  RH  092%=      5-min Rain = 0
KCO2 240948Z 04009KT 20/19 A2989 RMK A01 T02020188  RH  092%=      5-min Rain = 0
KCO2 240949Z 04007KT 20/19 A2989 RMK A01 T02020188  RH  092%=      5-min Rain = 0
KCO2 240950Z 03007KT 20/19 A2989 RMK A01 T02020188  RH  091%=      5-min Rain = 0
KCO2 240951Z 03008KT 20/19 A2989 RMK A01 T02020187  RH  091%=      5-min Rain = 0
KCO2 240952Z 03008KT 20/19 A2989 RMK A01 T02020187  RH  091%=      5-min Rain = 0
KCO2 240953Z 03008KT 20/19 A2989 RMK A01 T02020187  RH  091%=      5-min Rain = 0
KCO2 240954Z 03008KT 20/19 A2989 RMK A01 T02020186  RH  091%=      5-min Rain = 0
KCO2 240955Z 03010KT 20/19 A2989 RMK A01 T02010186  RH  091%=      5-min Rain = 0
KCO2 240956Z 03010KT 20/19 A2989 RMK A01 T02010186  RH  091%=      5-min Rain = 0
KCO2 240957Z 03009KT 20/19 A2989 RMK A01 T02010186  RH  091%=      5-min Rain = 0
KCO2 240958Z 03010KT 20/19 A2989 RMK A01 T02010186  RH  091%=      5-min Rain = 0
KCO2 240959Z 03011KT 20/19 A2989 RMK A01 T02020186  RH  091%=      5-min Rain = 0
KCO2 241000Z 03010KT 20/19 A299 RMK A01 T02020186  RH  091%=      5-min Rain = 0
KCO2 241001Z 03011KT 20/19 A299 RMK A01 T02020186  RH  091%=      5-min Rain = 0
KCO2 241002Z 03008KT 20/19 A299 RMK A01 T02020186  RH  090%=      5-min Rain = 0
KCO2 241003Z 03009KT 20/19 A299 RMK A01 T02020186  RH  090%=      5-min Rain = 0
KCO2 241004Z 04011KT 20/19 A299 RMK A01 T02020186  RH  090%=      5-min Rain = 0
KCO2 241005Z 03009KT 20/19 A299 RMK A01 T02020186  RH  090%=      5-min Rain = 0
KCO2 241006Z 04011KT 20/19 A299 RMK A01 T02020186  RH  090%=      5-min Rain = 0
KCO2 241007Z 04011KT 20/19 A299 RMK A01 T02020186  RH  090%=      5-min Rain = 0
KCO2 241008Z 04011KT 20/19 A299 RMK A01 T02020186  RH  090%=      5-min Rain = 0
KCO2 241009Z 04011KT 20/19 A299 RMK A01 T02030186  RH  090%=      5-min Rain = 0
KCO2 241010Z 04011KT 20/19 A299 RMK A01 T02030186  RH  090%=      5-min Rain = 0
KCO2 241011Z 04011G16KT 20/19 A299 RMK A01 T02030186  RH  090%=      5-min Rain = 0
KCO2 241012Z 03011KT 20/19 A299 RMK A01 T02030186  RH  090%=      5-min Rain = 0
KCO2 241013Z 04010KT 20/19 A299 RMK A01 T02030187  RH  090%=      5-min Rain = 0
KCO2 241014Z 04011KT 20/19 A299 RMK A01 T02030186  RH  090%=      5-min Rain = 0
KCO2 241015Z 04011KT 20/19 A299 RMK A01 T02030186  RH  090%=      5-min Rain = 0
KCO2 241016Z 05011KT 20/19 A2989 RMK A01 T02040187  RH  090%=      5-min Rain = 0
KCO2 241017Z 04012KT 20/19 A2989 RMK A01 T02040186  RH  090%=      5-min Rain = 0
KCO2 241018Z 04010KT 20/19 A2989 RMK A01 T02030186  RH  090%=      5-min Rain = 0
KCO2 241019Z 04010KT 20/19 A2989 RMK A01 T02040186  RH  090%=      5-min Rain = 0
KCO2 241020Z 04009KT 20/19 A2989 RMK A01 T02040187  RH  090%=      5-min Rain = 0
KCO2 241021Z 05009KT 20/19 A2989 RMK A01 T02040187  RH  090%=      5-min Rain = 0
KCO2 241022Z 04009KT 20/19 A2989 RMK A01 T02040187  RH  090%=      5-min Rain = 0
KCO2 241023Z 04009KT 20/19 A2989 RMK A01 T02040187  RH  090%=      5-min Rain = 0
KCO2 241024Z 04010KT 20/19 A2989 RMK A01 T02040187  RH  090%=      5-min Rain = 0
KCO2 241025Z 04011KT 21/19 A2989 RMK A01 T02050187  RH  090%=      5-min Rain = 0
KCO2 241026Z 03009KT 21/19 A2989 RMK A01 T02050187  RH  090%=      5-min Rain = 0
KCO2 241027Z 04009KT 21/19 A2989 RMK A01 T02050187  RH  089%=      5-min Rain = 0
KCO2 241028Z 04008KT 21/19 A2989 RMK A01 T02050187  RH  089%=      5-min Rain = 0
KCO2 241029Z 04008KT 21/19 A2989 RMK A01 T02050187  RH  089%=      5-min Rain = 0
KCO2 241030Z 04008KT 21/19 A2989 RMK A01 T02050187  RH  090%=      5-min Rain = 0
KCO2 241031Z 04007KT 21/19 A2989 RMK A01 T02050187  RH  090%=      5-min Rain = 0
KCO2 241032Z 05007KT 21/19 A2989 RMK A01 T02050188  RH  090%=      5-min Rain = 0
KCO2 241033Z 05007KT 21/19 A2989 RMK A01 T02050187  RH  090%=      5-min Rain = 0
KCO2 241034Z 05008KT 20/19 A2989 RMK A01 T02040187  RH  090%=      5-min Rain = 0
KCO2 241035Z 05008KT 20/19 A2989 RMK A01 T02040188  RH  090%=      5-min Rain = 0
KCO2 241036Z 05007KT 21/19 A2989 RMK A01 T02050188  RH  090%=      5-min Rain = 0
KCO2 241037Z 05007KT 20/19 A2989 RMK A01 T02040187  RH  090%=      5-min Rain = 0
KCO2 241038Z 05008KT 20/19 A2989 RMK A01 T02040188  RH  090%=      5-min Rain = 0
KCO2 241039Z 05008KT 20/19 A2989 RMK A01 T02040188  RH  090%=      5-min Rain = 0
KCO2 241040Z 05007KT 20/19 A2989 RMK A01 T02040188  RH  090%=      5-min Rain = 0
KCO2 241041Z 05007KT 20/19 A2989 RMK A01 T02040188  RH  090%=      5-min Rain = 0
KCO2 241042Z 05007KT 20/19 A2989 RMK A01 T02040187  RH  090%=      5-min Rain = 0
KCO2 241043Z 05007KT 20/19 A2989 RMK A01 T02030188  RH  091%=      5-min Rain = 0
KCO2 241044Z 05008KT 20/19 A299 RMK A01 T02040188  RH  091%=      5-min Rain = 0
KCO2 241045Z 05008KT 20/19 A299 RMK A01 T02040188  RH  091%=      5-min Rain = 0
KCO2 241046Z 05008KT 20/19 A299 RMK A01 T02040188  RH  091%=      5-min Rain = 0
KCO2 241047Z 06007KT 20/19 A299 RMK A01 T02040188  RH  090%=      5-min Rain = 0
KCO2 241048Z 06007KT 20/19 A299 RMK A01 T02040188  RH  090%=      5-min Rain = 0
KCO2 241049Z 07007KT 21/19 A299 RMK A01 T02050188  RH  090%=      5-min Rain = 0
KCO2 241050Z 07008KT 20/19 A299 RMK A01 T02040188  RH  090%=      5-min Rain = 0
KCO2 241051Z 07008KT 21/19 A299 RMK A01 T02050188  RH  090%=      5-min Rain = 0
KCO2 241052Z 07008KT 20/19 A299 RMK A01 T02040188  RH  090%=      5-min Rain = 0
KCO2 241053Z 07009KT 21/19 A299 RMK A01 T02050188  RH  090%=      5-min Rain = 0
KCO2 241054Z 07009KT 21/19 A299 RMK A01 T02050188  RH  090%=      5-min Rain = 0
KCO2 241055Z 06008KT 21/19 A299 RMK A01 T02060188  RH  090%=      5-min Rain = 0
KCO2 241056Z 07008KT 21/19 A299 RMK A01 T02060188  RH  090%=      5-min Rain = 0
KCO2 241057Z 07007KT 21/19 A299 RMK A01 T02060188  RH  090%=      5-min Rain = 0
KCO2 241058Z 07008KT 21/19 A299 RMK A01 T02060188  RH  090%=      5-min Rain = 0
KCO2 241059Z 06008KT 21/19 A299 RMK A01 T02060188  RH  090%=      5-min Rain = 0
KCO2 241100Z 07007KT 21/19 A299 RMK A01 T02060188  RH  089%=      5-min Rain = 0
KCO2 241101Z 07008KT 21/19 A299 RMK A01 T02060188  RH  089%=      5-min Rain = 0
KCO2 241102Z 06007KT 21/19 A299 RMK A01 T02060188  RH  089%=      5-min Rain = 0
KCO2 241103Z 06008KT 21/19 A299 RMK A01 T02060188  RH  089%=      5-min Rain = 0
KCO2 241104Z 07007KT 21/19 A299 RMK A01 T02060188  RH  089%=      5-min Rain = 0
KCO2 241105Z 06007KT 21/19 A299 RMK A01 T02060188  RH  089%=      5-min Rain = 0
KCO2 241106Z 06007KT 21/19 A299 RMK A01 T02060188  RH  089%=      5-min Rain = 0
KCO2 241107Z 06007KT 21/19 A2991 RMK A01 T02060188  RH  089%=      5-min Rain = 0
KCO2 241108Z 06007KT 21/19 A2991 RMK A01 T02060188  RH  089%=      5-min Rain = 0
KCO2 241109Z 06007KT 21/19 A2991 RMK A01 T02060188  RH  089%=      5-min Rain = 0
KCO2 241110Z 07007KT 21/19 A2991 RMK A01 T02060188  RH  089%=      5-min Rain = 0
KCO2 241111Z 07007KT 21/19 A2991 RMK A01 T02060188  RH  089%=      5-min Rain = 0
KCO2 241112Z 07007KT 21/19 A2991 RMK A01 T02060188  RH  089%=      5-min Rain = 0
KCO2 241113Z 07007KT 21/19 A299 RMK A01 T02060188  RH  090%=      5-min Rain = 0
KCO2 241114Z 07007KT 21/19 A299 RMK A01 T02060188  RH  089%=      5-min Rain = 0
KCO2 241115Z 07007KT 21/19 A299 RMK A01 T02060188  RH  089%=      5-min Rain = 0
KCO2 241116Z 07007KT 21/19 A299 RMK A01 T02060188  RH  089%=      5-min Rain = 0
KCO2 241117Z 07007KT 21/19 A299 RMK A01 T02060188  RH  090%=      5-min Rain = 0
KCO2 241118Z 07007KT 21/19 A299 RMK A01 T02050188  RH  090%=      5-min Rain = 0
KCO2 241119Z 07007KT 21/19 A299 RMK A01 T02050188  RH  090%=      5-min Rain = 0
KCO2 241120Z 06008KT 21/19 A299 RMK A01 T02060188  RH  089%=      5-min Rain = 0
KCO2 241121Z 06007KT 21/19 A299 RMK A01 T02050187  RH  089%=      5-min Rain = 0
KCO2 241122Z 06007KT 21/19 A299 RMK A01 T02060188  RH  089%=      5-min Rain = 0
KCO2 241123Z 06006KT 21/19 A299 RMK A01 T02060188  RH  089%=      5-min Rain = 0
KCO2 241124Z 06007KT 21/19 A299 RMK A01 T02060187  RH  089%=      5-min Rain = 0
KCO2 241125Z 06008KT 21/19 A299 RMK A01 T02060188  RH  089%=      5-min Rain = 0
KCO2 241126Z 07008KT 21/19 A299 RMK A01 T02050187  RH  089%=      5-min Rain = 0
KCO2 241127Z 06008KT 21/19 A299 RMK A01 T02050187  RH  089%=      5-min Rain = 0
KCO2 241128Z 06008KT 21/19 A299 RMK A01 T02050187  RH  089%=      5-min Rain = 0
KCO2 241129Z 06009KT 21/19 A299 RMK A01 T02050187  RH  090%=      5-min Rain = 0
KCO2 241130Z 06010KT 20/19 A299 RMK A01 T02040187  RH  090%=      5-min Rain = 0
KCO2 241131Z 06009KT 20/19 A2991 RMK A01 T02040187  RH  090%=      5-min Rain = 0
KCO2 241132Z 06009KT 20/19 A2991 RMK A01 T02040186  RH  090%=      5-min Rain = 0
KCO2 241133Z 06009KT 20/19 A2991 RMK A01 T02040186  RH  090%=      5-min Rain = 0
KCO2 241134Z 06008KT 20/19 A2991 RMK A01 T02040186  RH  090%=      5-min Rain = 0
KCO2 241135Z 06009KT 20/19 A2991 RMK A01 T02040186  RH  089%=      5-min Rain = 0
KCO2 241136Z 06008KT 20/19 A2991 RMK A01 T02040186  RH  089%=      5-min Rain = 0
KCO2 241137Z 06008KT 20/19 A2991 RMK A01 T02040186  RH  089%=      5-min Rain = 0
KCO2 241138Z 06008KT 20/19 A2991 RMK A01 T02040186  RH  089%=      5-min Rain = 0
KCO2 241139Z 06008KT 20/19 A2991 RMK A01 T02030185  RH  089%=      5-min Rain = 0
KCO2 241140Z 05008KT 20/19 A2991 RMK A01 T02030185  RH  089%=      5-min Rain = 0
KCO2 241141Z 05008KT 20/19 A2991 RMK A01 T02030185  RH  089%=      5-min Rain = 0
KCO2 241142Z 05008KT 20/19 A2991 RMK A01 T02030185  RH  089%=      5-min Rain = 0
KCO2 241143Z 05009KT 20/19 A2991 RMK A01 T02030185  RH  089%=      5-min Rain = 0
KCO2 241144Z 05008KT 20/18 A2991 RMK A01 T02020184  RH  089%=      5-min Rain = 0
KCO2 241145Z 04009KT 20/18 A2991 RMK A01 T02020184  RH  089%=      5-min Rain = 0
KCO2 241146Z 04009KT 20/18 A2991 RMK A01 T02020184  RH  089%=      5-min Rain = 0
KCO2 241147Z 05009KT 20/18 A2991 RMK A01 T02020184  RH  090%=      5-min Rain = 0
KCO2 241148Z 05008KT 20/18 A2991 RMK A01 T02020184  RH  089%=      5-min Rain = 0
KCO2 241149Z 06008KT 20/18 A2991 RMK A01 T02020184  RH  089%=      5-min Rain = 0
KCO2 241150Z 07008KT 20/18 A2991 RMK A01 T02020184  RH  089%=      5-min Rain = 0
KCO2 241151Z 07008KT 20/18 A2991 RMK A01 T02020183  RH  089%=      5-min Rain = 0
KCO2 241152Z 07008KT 20/18 A2991 RMK A01 T02020183  RH  089%=      5-min Rain = 0
KCO2 241153Z 07007KT 20/18 A2991 RMK A01 T02030184  RH  089%=      5-min Rain = 0
KCO2 241154Z 07007KT 20/18 A2991 RMK A01 T02020183  RH  089%=      5-min Rain = 0
KCO2 241155Z 07008KT 20/18 A2991 RMK A01 T02030184  RH  089%=      5-min Rain = 0
KCO2 241156Z 07007KT 20/18 A2991 RMK A01 T02030184  RH  089%=      5-min Rain = 0
KCO2 241157Z 07008KT 20/18 A2991 RMK A01 T02030183  RH  089%=      5-min Rain = 0
KCO2 241158Z 07008KT 20/18 A2991 RMK A01 T02030183  RH  089%=      5-min Rain = 0
KCO2 241159Z 07008KT 20/18 A2991 RMK A01 T02030183  RH  089%=      5-min Rain = 0
KCO2 241200Z 06008KT 20/18 A2991 RMK A01 T02030183  RH  089%=      5-min Rain = 0
KCO2 241201Z 07009KT 20/18 A2991 RMK A01 T02030183  RH  089%=      5-min Rain = 0
KCO2 241202Z 06010KT 20/18 A2991 RMK A01 T02030183  RH  088%=      5-min Rain = 0
KCO2 241203Z 07009KT 20/18 A2991 RMK A01 T02040183  RH  088%=      5-min Rain = 0
KCO2 241204Z 07009KT 21/18 A2991 RMK A01 T02050183  RH  087%=      5-min Rain = 0
KCO2 241205Z 07007KT 21/18 A2991 RMK A01 T02050183  RH  087%=      5-min Rain = 0
KCO2 241206Z 07008KT 21/18 A2992 RMK A01 T02050183  RH  087%=      5-min Rain = 0
KCO2 241207Z 07009KT 21/18 A2992 RMK A01 T02050183  RH  087%=      5-min Rain = 0
KCO2 241208Z 07008KT 21/18 A2992 RMK A01 T02060183  RH  087%=      5-min Rain = 0
KCO2 241209Z 07008KT 21/18 A2992 RMK A01 T02060183  RH  086%=      5-min Rain = 0
KCO2 241210Z 07009KT 21/18 A2992 RMK A01 T02060183  RH  086%=      5-min Rain = 0
KCO2 241211Z 07010KT 21/18 A2992 RMK A01 T02060183  RH  086%=      5-min Rain = 0
KCO2 241212Z 07010KT 21/18 A2992 RMK A01 T02070183  RH  086%=      5-min Rain = 0
KCO2 241213Z 07009KT 21/18 A2992 RMK A01 T02070183  RH  086%=      5-min Rain = 0
KCO2 241214Z 07010KT 21/18 A2992 RMK A01 T02070183  RH  086%=      5-min Rain = 0
KCO2 241215Z 07009KT 21/18 A2992 RMK A01 T02070183  RH  086%=      5-min Rain = 0
KCO2 241216Z 07009KT 21/18 A2992 RMK A01 T02070183  RH  086%=      5-min Rain = 0
KCO2 241217Z 06008KT 21/18 A2992 RMK A01 T02070183  RH  086%=      5-min Rain = 0
KCO2 241218Z 07010KT 21/18 A2992 RMK A01 T02070183  RH  086%=      5-min Rain = 0
KCO2 241219Z 06010KT 21/18 A2992 RMK A01 T02070183  RH  086%=      5-min Rain = 0
KCO2 241220Z 07009KT 21/18 A2992 RMK A01 T02080183  RH  086%=      5-min Rain = 0
KCO2 241221Z 07009KT 21/18 A2992 RMK A01 T02080184  RH  086%=      5-min Rain = 0
KCO2 241222Z 07009KT 21/18 A2992 RMK A01 T02090184  RH  086%=      5-min Rain = 0
KCO2 241223Z 07010KT 21/18 A2992 RMK A01 T02090184  RH  085%=      5-min Rain = 0
KCO2 241224Z 07010KT 21/18 A2992 RMK A01 T02090183  RH  085%=      5-min Rain = 0
KCO2 241225Z 07009KT 21/18 A2992 RMK A01 T02100184  RH  085%=      5-min Rain = 0
KCO2 241226Z 07009KT 21/18 A2992 RMK A01 T02100184  RH  085%=      5-min Rain = 0
KCO2 241227Z 07007KT 21/18 A2992 RMK A01 T02100184  RH  085%=      5-min Rain = 0
KCO2 241228Z 07008KT 21/18 A2992 RMK A01 T02100184  RH  085%=      5-min Rain = 0
KCO2 241229Z 07009KT 21/18 A2992 RMK A01 T02100184  RH  085%=      5-min Rain = 0
KCO2 241230Z 07008KT 21/18 A2992 RMK A01 T02100184  RH  085%=      5-min Rain = 0
KCO2 241231Z 07008KT 21/18 A2992 RMK A01 T02110184  RH  085%=      5-min Rain = 0
KCO2 241232Z 07008KT 21/18 A2992 RMK A01 T02100184  RH  085%=      5-min Rain = 0
KCO2 241233Z 07011KT 21/18 A2992 RMK A01 T02110184  RH  084%=      5-min Rain = 0
KCO2 241234Z 06008KT 21/18 A2992 RMK A01 T02120184  RH  084%=      5-min Rain = 0
KCO2 241235Z 06008KT 21/18 A2993 RMK A01 T02120184  RH  084%=      5-min Rain = 0
KCO2 241236Z 06010KT 21/18 A2993 RMK A01 T02130184  RH  084%=      5-min Rain = 0
KCO2 241237Z 05009KT 21/18 A2993 RMK A01 T02130184  RH  083%=      5-min Rain = 0
KCO2 241238Z 06009KT 21/18 A2993 RMK A01 T02140184  RH  083%=      5-min Rain = 0
KCO2 241239Z 06008KT 22/18 A2993 RMK A01 T02150184  RH  083%=      5-min Rain = 0
KCO2 241240Z 06008KT 22/18 A2993 RMK A01 T02150184  RH  083%=      5-min Rain = 0
KCO2 241241Z 06009KT 22/18 A2993 RMK A01 T02150184  RH  083%=      5-min Rain = 0
KCO2 241242Z 07009KT 22/18 A2993 RMK A01 T02150184  RH  083%=      5-min Rain = 0
KCO2 241243Z 07011KT 22/18 A2993 RMK A01 T02150184  RH  083%=      5-min Rain = 0
KCO2 241244Z 07009KT 22/18 A2993 RMK A01 T02150184  RH  083%=      5-min Rain = 0
KCO2 241245Z 07010KT 22/18 A2993 RMK A01 T02150184  RH  083%=      5-min Rain = 0
KCO2 241246Z 07008KT 22/18 A2993 RMK A01 T02150184  RH  083%=      5-min Rain = 0
KCO2 241247Z 07008KT 22/19 A2993 RMK A01 T02150185  RH  083%=      5-min Rain = 0
KCO2 241248Z 07009KT 22/18 A2993 RMK A01 T02150184  RH  083%=      5-min Rain = 0
KCO2 241249Z 06009KT 22/18 A2993 RMK A01 T02150184  RH  083%=      5-min Rain = 0
KCO2 241250Z 06009KT 22/18 A2993 RMK A01 T02150184  RH  082%=      5-min Rain = 0
KCO2 241251Z 07010KT 22/18 A2994 RMK A01 T02150184  RH  082%=      5-min Rain = 0
KCO2 241252Z 07008KT 22/18 A2994 RMK A01 T02150184  RH  082%=      5-min Rain = 0
KCO2 241253Z 06009KT 22/18 A2994 RMK A01 T02160184  RH  082%=      5-min Rain = 0
KCO2 241254Z 07010KT 22/18 A2994 RMK A01 T02160184  RH  082%=      5-min Rain = 0
KCO2 241255Z 06010KT 22/18 A2994 RMK A01 T02160184  RH  082%=      5-min Rain = 0
KCO2 241256Z 07010KT 22/18 A2994 RMK A01 T02170184  RH  082%=      5-min Rain = 0
KCO2 241257Z 07009KT 22/18 A2994 RMK A01 T02170184  RH  082%=      5-min Rain = 0
KCO2 241258Z 07009KT 22/19 A2994 RMK A01 T02180185  RH  081%=      5-min Rain = 0
KCO2 241259Z 07010KT 22/19 A2994 RMK A01 T02190185  RH  081%=      5-min Rain = 0
KCO2 241300Z 07011KT 22/18 A2994 RMK A01 T02190184  RH  081%=      5-min Rain = 0
KCO2 241301Z 08011KT 22/18 A2994 RMK A01 T02190184  RH  081%=      5-min Rain = 0
KCO2 241302Z 08010KT 22/19 A2994 RMK A01 T02200185  RH  081%=      5-min Rain = 0
KCO2 241303Z 07011KT 22/19 A2994 RMK A01 T02210185  RH  080%=      5-min Rain = 0
KCO2 241304Z 08010KT 22/19 A2994 RMK A01 T02210185  RH  080%=      5-min Rain = 0
KCO2 241305Z 07009KT 22/19 A2994 RMK A01 T02210185  RH  080%=      5-min Rain = 0
KCO2 241306Z 07008KT 22/19 A2994 RMK A01 T02220185  RH  080%=      5-min Rain = 0
KCO2 241307Z 07008KT 22/19 A2994 RMK A01 T02220186  RH  080%=      5-min Rain = 0
KCO2 241308Z 07008KT 22/19 A2994 RMK A01 T02220186  RH  080%=      5-min Rain = 0
KCO2 241309Z 07008KT 22/19 A2995 RMK A01 T02230186  RH  080%=      5-min Rain = 0
KCO2 241310Z 07008KT 22/19 A2995 RMK A01 T02230186  RH  079%=      5-min Rain = 0
KCO2 241311Z 07009KT 22/19 A2995 RMK A01 T02230186  RH  079%=      5-min Rain = 0
KCO2 241312Z 07010KT 22/19 A2995 RMK A01 T02240185  RH  079%=      5-min Rain = 0
KCO2 241313Z 07011KT 22/19 A2994 RMK A01 T02240185  RH  078%=      5-min Rain = 0
KCO2 241314Z 08010KT 23/19 A2994 RMK A01 T02250185  RH  078%=      5-min Rain = 0
KCO2 241315Z 08011KT 23/19 A2994 RMK A01 T02250186  RH  078%=      5-min Rain = 0
KCO2 241316Z 08009KT 23/19 A2994 RMK A01 T02250185  RH  078%=      5-min Rain = 0
KCO2 241317Z 07008KT 23/19 A2994 RMK A01 T02260186  RH  078%=      5-min Rain = 0
KCO2 241318Z 07011KT 23/19 A2995 RMK A01 T02260186  RH  078%=      5-min Rain = 0
KCO2 241319Z 07011KT 23/18 A2995 RMK A01 T02260184  RH  077%=      5-min Rain = 0
KCO2 241320Z 07010KT 23/18 A2995 RMK A01 T02270184  RH  077%=      5-min Rain = 0
KCO2 241321Z 07010KT 23/19 A2995 RMK A01 T02270185  RH  077%=      5-min Rain = 0
KCO2 241322Z 07009KT 23/18 A2995 RMK A01 T02270184  RH  077%=      5-min Rain = 0
KCO2 241323Z 07008KT 23/18 A2995 RMK A01 T02270184  RH  077%=      5-min Rain = 0
KCO2 241324Z 07010KT 23/19 A2995 RMK A01 T02280185  RH  077%=      5-min Rain = 0
KCO2 241325Z 07011KT 23/18 A2995 RMK A01 T02280184  RH  076%=      5-min Rain = 0
KCO2 241326Z 08011KT 23/18 A2995 RMK A01 T02280184  RH  076%=      5-min Rain = 0
KCO2 241327Z 07010KT 23/18 A2995 RMK A01 T02280184  RH  076%=      5-min Rain = 0
KCO2 241328Z 07008KT 23/18 A2995 RMK A01 T02280184  RH  076%=      5-min Rain = 0
KCO2 241329Z 07010KT 23/19 A2995 RMK A01 T02280185  RH  076%=      5-min Rain = 0
KCO2 241330Z 07012KT 23/18 A2995 RMK A01 T02280184  RH  076%=      5-min Rain = 0
KCO2 241331Z 07010KT 23/18 A2995 RMK A01 T02280183  RH  076%=      5-min Rain = 0
KCO2 241332Z 08010KT 23/18 A2995 RMK A01 T02290184  RH  076%=      5-min Rain = 0
KCO2 241333Z 08009KT 23/18 A2995 RMK A01 T02290184  RH  076%=      5-min Rain = 0
KCO2 241334Z 08011KT 23/19 A2995 RMK A01 T02290185  RH  076%=      5-min Rain = 0
KCO2 241335Z 08009KT 23/19 A2995 RMK A01 T02300185  RH  076%=      5-min Rain = 0
KCO2 241336Z 07011KT 23/19 A2995 RMK A01 T02300185  RH  076%=      5-min Rain = 0
KCO2 241337Z 07009KT 23/19 A2995 RMK A01 T02300185  RH  076%=      5-min Rain = 0
KCO2 241338Z 07011KT 23/19 A2995 RMK A01 T02310185  RH  075%=      5-min Rain = 0
KCO2 241339Z 07010KT 23/19 A2995 RMK A01 T02310185  RH  075%=      5-min Rain = 0
KCO2 241340Z 07010KT 23/19 A2995 RMK A01 T02320186  RH  075%=      5-min Rain = 0
KCO2 241341Z 08008KT 23/19 A2995 RMK A01 T02340187  RH  075%=      5-min Rain = 0
KCO2 241342Z 07008KT 24/19 A2995 RMK A01 T02360188  RH  074%=      5-min Rain = 0
KCO2 241343Z 07008KT 24/19 A2995 RMK A01 T02380187  RH  073%=      5-min Rain = 0
KCO2 241344Z 07010KT 24/19 A2995 RMK A01 T02390188  RH  073%=      5-min Rain = 0
KCO2 241345Z 07010KT 24/19 A2995 RMK A01 T02410188  RH  072%=      5-min Rain = 0
KCO2 241346Z 08011KT 24/19 A2995 RMK A01 T02410187  RH  072%=      5-min Rain = 0
KCO2 241347Z 07010KT 24/19 A2995 RMK A01 T02420187  RH  071%=      5-min Rain = 0
KCO2 241348Z 06011KT 24/19 A2995 RMK A01 T02410186  RH  071%=      5-min Rain = 0
KCO2 241349Z 07009KT 24/19 A2995 RMK A01 T02410187  RH  072%=      5-min Rain = 0
KCO2 241350Z 07010KT 24/19 A2995 RMK A01 T02420188  RH  072%=      5-min Rain = 0
KCO2 241351Z 08010KT 24/19 A2995 RMK A01 T02430187  RH  071%=      5-min Rain = 0
KCO2 241352Z 09011KT 24/19 A2995 RMK A01 T02430188  RH  071%=      5-min Rain = 0
KCO2 241353Z 08012KT 24/19 A2995 RMK A01 T02430188  RH  071%=      5-min Rain = 0
KCO2 241354Z 08012KT 24/19 A2995 RMK A01 T02430188  RH  071%=      5-min Rain = 0
KCO2 241355Z 08012KT 24/19 A2995 RMK A01 T02440189  RH  072%=      5-min Rain = 0
KCO2 241356Z 08012KT 24/19 A2995 RMK A01 T02440188  RH  071%=      5-min Rain = 0
KCO2 241357Z 08012KT 24/19 A2995 RMK A01 T02440188  RH  071%=      5-min Rain = 0
KCO2 241358Z 08012KT 24/19 A2995 RMK A01 T02440188  RH  071%=      5-min Rain = 0
KCO2 241359Z 08012KT 24/19 A2995 RMK A01 T02440188  RH  071%=      5-min Rain = 0
KCO2 241400Z 08011KT 24/19 A2995 RMK A01 T02440188  RH  071%=      5-min Rain = 0
KCO2 241401Z 08010KT 24/19 A2995 RMK A01 T02440189  RH  072%=      5-min Rain = 0
KCO2 241402Z 08010KT 25/19 A2995 RMK A01 T02450190  RH  071%=      5-min Rain = 0
KCO2 241403Z 08011KT 25/19 A2996 RMK A01 T02470190  RH  071%=      5-min Rain = 0
KCO2 241404Z 08011KT 25/19 A2996 RMK A01 T02470190  RH  070%=      5-min Rain = 0
KCO2 241405Z 08011KT 25/19 A2996 RMK A01 T02470190  RH  071%=      5-min Rain = 0
KCO2 241406Z 07011KT 25/19 A2996 RMK A01 T02470190  RH  071%=      5-min Rain = 0
KCO2 241407Z 08011KT 25/19 A2996 RMK A01 T02490191  RH  070%=      5-min Rain = 0
KCO2 241408Z 08010KT 25/19 A2996 RMK A01 T02500191  RH  070%=      5-min Rain = 0
KCO2 241409Z 08010KT 25/19 A2996 RMK A01 T02510191  RH  069%=      5-min Rain = 0
KCO2 241410Z 08010KT 25/19 A2996 RMK A01 T02510191  RH  070%=      5-min Rain = 0
KCO2 241411Z 08011KT 25/19 A2996 RMK A01 T02500191  RH  070%=      5-min Rain = 0
KCO2 241412Z 08010KT 25/19 A2996 RMK A01 T02480191  RH  070%=      5-min Rain = 0
KCO2 241413Z 09011KT 25/19 A2996 RMK A01 T02480191  RH  071%=      5-min Rain = 0
KCO2 241414Z 09010KT 25/19 A2996 RMK A01 T02480192  RH  071%=      5-min Rain = 0
KCO2 241415Z 09011KT 25/19 A2996 RMK A01 T02480191  RH  071%=      5-min Rain = 0
KCO2 241416Z 08010KT 25/19 A2996 RMK A01 T02470192  RH  071%=      5-min Rain = 0
KCO2 241417Z 09010KT 25/19 A2996 RMK A01 T02470193  RH  072%=      5-min Rain = 0
KCO2 241418Z 09009KT 25/19 A2996 RMK A01 T02470192  RH  071%=      5-min Rain = 0
KCO2 241419Z 09010KT 25/19 A2996 RMK A01 T02480193  RH  071%=      5-min Rain = 0
KCO2 241420Z 07009KT 25/19 A2996 RMK A01 T02480193  RH  071%=      5-min Rain = 0
KCO2 241421Z 08010KT 25/19 A2996 RMK A01 T02490192  RH  071%=      5-min Rain = 0
KCO2 241422Z 07010KT 25/19 A2996 RMK A01 T02490191  RH  070%=      5-min Rain = 0
KCO2 241423Z 07009KT 25/19 A2996 RMK A01 T02490192  RH  070%=      5-min Rain = 0
KCO2 241424Z 07009KT 25/19 A2996 RMK A01 T02490192  RH  070%=      5-min Rain = 0
KCO2 241425Z 07009KT 25/19 A2996 RMK A01 T02500192  RH  070%=      5-min Rain = 0
KCO2 241426Z 07009KT 25/19 A2996 RMK A01 T02490193  RH  071%=      5-min Rain = 0
KCO2 241427Z 08008KT 25/19 A2996 RMK A01 T02500192  RH  070%=      5-min Rain = 0
KCO2 241428Z 08010KT 25/19 A2996 RMK A01 T02500194  RH  071%=      5-min Rain = 0
KCO2 241429Z 09009KT 25/19 A2996 RMK A01 T02500193  RH  071%=      5-min Rain = 0
KCO2 241430Z 09009KT 25/19 A2997 RMK A01 T02500193  RH  071%=      5-min Rain = 0
KCO2 241431Z 09009KT 25/19 A2997 RMK A01 T02500194  RH  071%=      5-min Rain = 0
KCO2 241432Z 08009KT 25/19 A2997 RMK A01 T02500194  RH  071%=      5-min Rain = 0
KCO2 241433Z 08009KT 25/19 A2997 RMK A01 T02500194  RH  071%=      5-min Rain = 0
KCO2 241434Z 08009KT 25/19 A2997 RMK A01 T02500194  RH  071%=      5-min Rain = 0
KCO2 241435Z 08010KT 25/19 A2997 RMK A01 T02510194  RH  071%=      5-min Rain = 0
KCO2 241436Z 09009KT 25/20 A2997 RMK A01 T02510195  RH  071%=      5-min Rain = 0
KCO2 241437Z 10009KT 25/20 A2997 RMK A01 T02520196  RH  071%=      5-min Rain = 0
KCO2 241438Z 09008KT 25/20 A2997 RMK A01 T02520198  RH  072%=      5-min Rain = 0
KCO2 241439Z 09009KT 25/20 A2997 RMK A01 T02540197  RH  071%=      5-min Rain = 0
KCO2 241440Z 09011KT 25/20 A2997 RMK A01 T02540196  RH  070%=      5-min Rain = 0
KCO2 241441Z 08012KT 25/20 A2997 RMK A01 T02540195  RH  070%=      5-min Rain = 0
KCO2 241442Z 09010KT 25/20 A2997 RMK A01 T02540195  RH  070%=      5-min Rain = 0
KCO2 241443Z 09011KT 25/20 A2997 RMK A01 T02530196  RH  071%=      5-min Rain = 0
KCO2 241444Z 09010KT 26/20 A2997 RMK A01 T02550197  RH  070%=      5-min Rain = 0
KCO2 241445Z 09009KT 26/20 A2997 RMK A01 T02570197  RH  070%=      5-min Rain = 0
KCO2 241446Z 07010KT 26/20 A2997 RMK A01 T02600199  RH  069%=      5-min Rain = 0
KCO2 241447Z 08009KT 26/20 A2997 RMK A01 T02610199  RH  069%=      5-min Rain = 0
KCO2 241448Z 09011KT 26/20 A2997 RMK A01 T02620200  RH  068%=      5-min Rain = 0
KCO2 241449Z 10010KT 26/20 A2997 RMK A01 T02620199  RH  068%=      5-min Rain = 0
KCO2 241450Z 09009KT 26/20 A2997 RMK A01 T02600199  RH  069%=      5-min Rain = 0
KCO2 241451Z 10009KT 26/20 A2997 RMK A01 T02590200  RH  070%=      5-min Rain = 0
KCO2 241452Z 11009KT 26/20 A2997 RMK A01 T02580199  RH  070%=      5-min Rain = 0
KCO2 241453Z 11009KT 26/20 A2997 RMK A01 T02570199  RH  070%=      5-min Rain = 0
KCO2 241454Z 10008KT 26/20 A2997 RMK A01 T02560199  RH  070%=      5-min Rain = 0
KCO2 241455Z 09009KT 26/20 A2997 RMK A01 T02560199  RH  070%=      5-min Rain = 0
KCO2 241456Z 10011KT 26/20 A2997 RMK A01 T02570200  RH  071%=      5-min Rain = 0
KCO2 241457Z 10011KT 26/20 A2997 RMK A01 T02580199  RH  070%=      5-min Rain = 0
KCO2 241458Z 11009KT 26/20 A2997 RMK A01 T02580200  RH  070%=      5-min Rain = 0
KCO2 241459Z 10009KT 26/20 A2997 RMK A01 T02600200  RH  070%=      5-min Rain = 0
KCO2 241500Z 10010KT 26/20 A2997 RMK A01 T02610200  RH  069%=      5-min Rain = 0
KCO2 241501Z 09010KT 26/20 A2997 RMK A01 T02630203  RH  069%=      5-min Rain = 0
KCO2 241502Z 09009KT 26/20 A2997 RMK A01 T02640200  RH  068%=      5-min Rain = 0
KCO2 241503Z 09009KT 26/20 A2997 RMK A01 T02640201  RH  068%=      5-min Rain = 0
KCO2 241504Z 08010KT 26/20 A2997 RMK A01 T02640201  RH  068%=      5-min Rain = 0
KCO2 241505Z 09008KT 27/20 A2997 RMK A01 T02650201  RH  068%=      5-min Rain = 0
KCO2 241506Z 09009KT 27/20 A2997 RMK A01 T02660202  RH  068%=      5-min Rain = 0
KCO2 241507Z 09008KT 27/20 A2997 RMK A01 T02670201  RH  067%=      5-min Rain = 0
KCO2 241508Z 09010KT 27/20 A2997 RMK A01 T02660202  RH  068%=      5-min Rain = 0
KCO2 241509Z 09008KT 27/20 A2997 RMK A01 T02650201  RH  068%=      5-min Rain = 0
KCO2 241510Z 09007KT 26/20 A2997 RMK A01 T02640201  RH  068%=      5-min Rain = 0
KCO2 241511Z 10010KT 26/20 A2997 RMK A01 T02630202  RH  069%=      5-min Rain = 0
KCO2 241512Z 10007KT 26/20 A2997 RMK A01 T02630203  RH  069%=      5-min Rain = 0
KCO2 241513Z 10006KT 26/20 A2997 RMK A01 T02630201  RH  069%=      5-min Rain = 0
KCO2 241514Z 09008KT 26/20 A2997 RMK A01 T02630202  RH  069%=      5-min Rain = 0
KCO2 241515Z 10009KT 26/20 A2997 RMK A01 T02630202  RH  069%=      5-min Rain = 0
KCO2 241516Z 10008KT 26/20 A2997 RMK A01 T02640203  RH  069%=      5-min Rain = 0
KCO2 241517Z 10008KT 27/21 A2997 RMK A01 T02660205  RH  069%=      5-min Rain = 0
KCO2 241518Z 10007KT 27/21 A2997 RMK A01 T02680206  RH  069%=      5-min Rain = 0
KCO2 241519Z 10007KT 27/21 A2997 RMK A01 T02700206  RH  068%=      5-min Rain = 0
KCO2 241520Z 11009KT 27/20 A2997 RMK A01 T02700204  RH  067%=      5-min Rain = 0
KCO2 241521Z 11006KT 27/21 A2997 RMK A01 T02700206  RH  068%=      5-min Rain = 0
KCO2 241522Z 09005KT 27/21 A2997 RMK A01 T02690206  RH  068%=      5-min Rain = 0
KCO2 241523Z 08007KT 27/20 A2997 RMK A01 T02680204  RH  068%=      5-min Rain = 0
KCO2 241524Z 06008KT 27/20 A2997 RMK A01 T02660202  RH  068%=      5-min Rain = 0
KCO2 241525Z 09008G13KT 26/20 A2997 RMK A01 T02640203  RH  069%=      5-min Rain = 0
KCO2 241526Z 10005KT 26/20 A2997 RMK A01 T02640204  RH  070%=      5-min Rain = 0
KCO2 241527Z 08005KT 26/21 A2997 RMK A01 T02640205  RH  070%=      5-min Rain = 0
KCO2 241528Z 08009KT 27/20 A2997 RMK A01 T02660204  RH  069%=      5-min Rain = 0
KCO2 241529Z 07008KT 27/20 A2997 RMK A01 T02660202  RH  068%=      5-min Rain = 0
KCO2 241530Z 07007KT 27/20 A2997 RMK A01 T02660204  RH  069%=      5-min Rain = 0
KCO2 241531Z 08007KT 27/20 A2997 RMK A01 T02680204  RH  068%=      5-min Rain = 0
KCO2 241532Z 09007KT 27/21 A2997 RMK A01 T02670206  RH  069%=      5-min Rain = 0
KCO2 241533Z 09011KT 27/21 A2997 RMK A01 T02670205  RH  069%=      5-min Rain = 0
KCO2 241534Z 09009KT 27/20 A2997 RMK A01 T02670204  RH  068%=      5-min Rain = 0
KCO2 241535Z 09007KT 27/21 A2997 RMK A01 T02670205  RH  069%=      5-min Rain = 0
KCO2 241536Z 09007KT 27/21 A2997 RMK A01 T02690207  RH  069%=      5-min Rain = 0
KCO2 241537Z 08006KT 27/21 A2997 RMK A01 T02720206  RH  067%=      5-min Rain = 0
KCO2 241538Z 08006KT 27/21 A2997 RMK A01 T02730205  RH  067%=      5-min Rain = 0
KCO2 241539Z 08009KT 27/21 A2997 RMK A01 T02720206  RH  067%=      5-min Rain = 0
KCO2 241540Z 07007KT 27/20 A2997 RMK A01 T02730204  RH  066%=      5-min Rain = 0
KCO2 241541Z 09005KT 27/21 A2997 RMK A01 T02740207  RH  067%=      5-min Rain = 0
KCO2 241542Z 08008KT 28/21 A2997 RMK A01 T02760208  RH  066%=      5-min Rain = 0
KCO2 241543Z 09006KT 28/21 A2997 RMK A01 T02770207  RH  066%=      5-min Rain = 0
KCO2 241544Z 06006KT 28/21 A2997 RMK A01 T02790209  RH  066%=      5-min Rain = 0
KCO2 241545Z 07007KT 28/21 A2997 RMK A01 T02810210  RH  065%=      5-min Rain = 0
KCO2 241546Z 10008KT 28/21 A2997 RMK A01 T02830208  RH  064%=      5-min Rain = 0
KCO2 241547Z 09007KT 28/21 A2997 RMK A01 T02810209  RH  065%=      5-min Rain = 0
KCO2 241548Z 08008KT 28/21 A2997 RMK A01 T02800209  RH  065%=      5-min Rain = 0
KCO2 241549Z 07009KT 28/21 A2997 RMK A01 T02810207  RH  064%=      5-min Rain = 0
KCO2 241550Z 05008KT 28/21 A2997 RMK A01 T02790206  RH  064%=      5-min Rain = 0
KCO2 241551Z 08009KT 28/21 A2997 RMK A01 T02770206  RH  065%=      5-min Rain = 0
KCO2 241552Z 08008KT 28/21 A2997 RMK A01 T02770207  RH  066%=      5-min Rain = 0
KCO2 241553Z 05008KT 28/21 A2997 RMK A01 T02780205  RH  065%=      5-min Rain = 0
KCO2 241554Z 06008KT 28/21 A2997 RMK A01 T02780207  RH  065%=      5-min Rain = 0
KCO2 241555Z 09006KT 28/21 A2997 RMK A01 T02810209  RH  065%=      5-min Rain = 0
KCO2 241556Z 07010KT 28/21 A2997 RMK A01 T02830209  RH  064%=      5-min Rain = 0
KCO2 241557Z 08011KT 28/21 A2997 RMK A01 T02840207  RH  063%=      5-min Rain = 0
KCO2 241558Z 06008KT 28/21 A2997 RMK A01 T02810206  RH  063%=      5-min Rain = 0
KCO2 241559Z 06007KT 28/21 A2997 RMK A01 T02780205  RH  064%=      5-min Rain = 0
KCO2 241600Z 08010KT 28/21 A2997 RMK A01 T02780208  RH  066%=      5-min Rain = 0
KCO2 241601Z 09006KT 28/21 A2996 RMK A01 T02790205  RH  064%=      5-min Rain = 0
KCO2 241602Z 08009KT 28/21 A2996 RMK A01 T02790209  RH  066%=      5-min Rain = 0
KCO2 241603Z 08009KT 28/21 A2996 RMK A01 T02800209  RH  066%=      5-min Rain = 0
KCO2 241604Z 11007KT 28/21 A2996 RMK A01 T02810210  RH  065%=      5-min Rain = 0
KCO2 241605Z 11005KT 28/21 A2996 RMK A01 T02810212  RH  066%=      5-min Rain = 0
KCO2 241606Z 08007KT 28/21 A2996 RMK A01 T02820211  RH  065%=      5-min Rain = 0
KCO2 241607Z 08006KT 28/21 A2996 RMK A01 T02830209  RH  064%=      5-min Rain = 0
KCO2 241608Z 08007KT 28/21 A2996 RMK A01 T02830211  RH  065%=      5-min Rain = 0
KCO2 241609Z 08009KT 28/21 A2996 RMK A01 T02830208  RH  064%=      5-min Rain = 0
KCO2 241610Z 09008KT 28/21 A2996 RMK A01 T02820209  RH  064%=      5-min Rain = 0
KCO2 241611Z 07005KT 28/21 A2996 RMK A01 T02810209  RH  065%=      5-min Rain = 0
KCO2 241612Z 10006KT 28/21 A2996 RMK A01 T02810212  RH  066%=      5-min Rain = 0
KCO2 241613Z 10009KT 28/21 A2996 RMK A01 T02840212  RH  065%=      5-min Rain = 0
KCO2 241614Z 08007KT 29/21 A2996 RMK A01 T02850214  RH  065%=      5-min Rain = 0
KCO2 241615Z 07009KT 29/21 A2996 RMK A01 T02870211  RH  064%=      5-min Rain = 0
KCO2 241616Z 06008KT 29/21 A2996 RMK A01 T02870210  RH  063%=      5-min Rain = 0
KCO2 241617Z 07008KT 29/21 A2996 RMK A01 T02880213  RH  064%=      5-min Rain = 0
KCO2 241618Z 07007KT 29/21 A2996 RMK A01 T02890212  RH  063%=      5-min Rain = 0
KCO2 241619Z 07006KT 29/21 A2996 RMK A01 T02890211  RH  063%=      5-min Rain = 0
KCO2 241620Z 05007KT 29/21 A2996 RMK A01 T02880212  RH  064%=      5-min Rain = 0
KCO2 241621Z 06007KT 29/21 A2996 RMK A01 T02880208  RH  062%=      5-min Rain = 0
KCO2 241622Z 06009KT 29/21 A2996 RMK A01 T02870209  RH  063%=      5-min Rain = 0
KCO2 241623Z 06008KT 29/21 A2996 RMK A01 T02860209  RH  063%=      5-min Rain = 0
KCO2 241624Z 08007KT 29/21 A2996 RMK A01 T02860210  RH  064%=      5-min Rain = 0
KCO2 241625Z 11006KT 29/21 A2996 RMK A01 T02860213  RH  065%=      5-min Rain = 0
KCO2 241626Z 09006KT 29/21 A2996 RMK A01 T02860213  RH  065%=      5-min Rain = 0
KCO2 241627Z 07008KT 29/21 A2996 RMK A01 T02870212  RH  064%=      5-min Rain = 0
KCO2 241628Z 08005KT 29/21 A2996 RMK A01 T02870211  RH  063%=      5-min Rain = 0
KCO2 241629Z 10005KT 29/22 A2996 RMK A01 T02870215  RH  065%=      5-min Rain = 0
KCO2 241630Z 07008KT 29/21 A2996 RMK A01 T02890213  RH  064%=      5-min Rain = 0
KCO2 241631Z 07005KT 29/21 A2996 RMK A01 T02890210  RH  063%=      5-min Rain = 0
KCO2 241632Z 06004KT 29/21 A2996 RMK A01 T02870213  RH  064%=      5-min Rain = 0
KCO2 241633Z 08005KT 29/21 A2996 RMK A01 T02880213  RH  064%=      5-min Rain = 0
KCO2 241634Z 09008KT 29/22 A2996 RMK A01 T02910216  RH  064%=      5-min Rain = 0
KCO2 241635Z 09007KT 29/21 A2996 RMK A01 T02930213  RH  062%=      5-min Rain = 0
KCO2 241636Z 07008KT 29/21 A2996 RMK A01 T02920213  RH  062%=      5-min Rain = 0
KCO2 241637Z 09006KT 29/21 A2996 RMK A01 T02910213  RH  063%=      5-min Rain = 0
KCO2 241638Z 11005KT 29/21 A2996 RMK A01 T02900212  RH  063%=      5-min Rain = 0
KCO2 241639Z 10004KT 29/21 A2996 RMK A01 T02900211  RH  063%=      5-min Rain = 0
KCO2 241640Z 10005KT 29/22 A2996 RMK A01 T02890217  RH  065%=      5-min Rain = 0
KCO2 241641Z 09007KT 30/22 A2996 RMK A01 T02950221  RH  065%=      5-min Rain = 0
KCO2 241642Z 12007KT 30/22 A2996 RMK A01 T02990217  RH  061%=      5-min Rain = 0
KCO2 241643Z 12005KT 30/22 A2996 RMK A01 T02990217  RH  061%=      5-min Rain = 0
KCO2 241644Z 10010KT 30/22 A2996 RMK A01 T02990217  RH  062%=      5-min Rain = 0
KCO2 241645Z 12008KT 30/22 A2996 RMK A01 T02990216  RH  061%=      5-min Rain = 0
KCO2 241646Z 12007KT 30/22 A2996 RMK A01 T02990215  RH  061%=      5-min Rain = 0
KCO2 241647Z 09006KT 30/22 A2996 RMK A01 T02990215  RH  061%=      5-min Rain = 0
KCO2 241648Z 10008KT 30/22 A2996 RMK A01 T02990219  RH  062%=      5-min Rain = 0
KCO2 241649Z 10009KT 30/22 A2996 RMK A01 T03020216  RH  060%=      5-min Rain = 0
KCO2 241650Z 10006KT 30/21 A2996 RMK A01 T03010213  RH  059%=      5-min Rain = 0
KCO2 241651Z 09005KT 30/21 A2996 RMK A01 T02980214  RH  061%=      5-min Rain = 0
KCO2 241652Z 06006KT 30/21 A2996 RMK A01 T02980212  RH  060%=      5-min Rain = 0
KCO2 241653Z 06004KT 30/21 A2995 RMK A01 T02970214  RH  061%=      5-min Rain = 0
KCO2 241654Z 06004KT 30/21 A2995 RMK A01 T02980214  RH  061%=      5-min Rain = 0
KCO2 241655Z 10005KT 30/22 A2995 RMK A01 T03000217  RH  061%=      5-min Rain = 0
KCO2 241656Z 10005KT 30/21 A2995 RMK A01 T03020214  RH  059%=      5-min Rain = 0
KCO2 241657Z 10006KT 30/22 A2995 RMK A01 T03020216  RH  060%=      5-min Rain = 0
KCO2 241658Z 09003KT 30/21 A2995 RMK A01 T03000213  RH  060%=      5-min Rain = 0
KCO2 241659Z 08003KT 30/22 A2995 RMK A01 T02990220  RH  062%=      5-min Rain = 0
KCO2 241700Z 09004KT 30/22 A2995 RMK A01 T03020218  RH  061%=      5-min Rain = 0
KCO2 241701Z 10008KT 31/22 A2995 RMK A01 T03050219  RH  060%=      5-min Rain = 0
KCO2 241702Z 11005KT 31/22 A2995 RMK A01 T03060215  RH  058%=      5-min Rain = 0
KCO2 241703Z 09006KT 30/22 A2995 RMK A01 T03030215  RH  060%=      5-min Rain = 0
KCO2 241704Z 07006KT 30/22 A2995 RMK A01 T03020215  RH  059%=      5-min Rain = 0
KCO2 241705Z 05008KT 30/21 A2995 RMK A01 T03030214  RH  059%=      5-min Rain = 0
KCO2 241706Z 09010KT 31/22 A2995 RMK A01 T03050217  RH  059%=      5-min Rain = 0
KCO2 241707Z 12007KT 31/22 A2995 RMK A01 T03080215  RH  058%=      5-min Rain = 0
KCO2 241708Z 13007KT 31/22 A2995 RMK A01 T03090217  RH  058%=      5-min Rain = 0
KCO2 241709Z 11008KT 31/22 A2995 RMK A01 T03090220  RH  059%=      5-min Rain = 0
KCO2 241710Z 11007KT 31/22 A2995 RMK A01 T03120218  RH  057%=      5-min Rain = 0
KCO2 241711Z 12007KT 31/22 A2995 RMK A01 T03120217  RH  057%=      5-min Rain = 0
KCO2 241712Z 13008KT 31/22 A2995 RMK A01 T03120216  RH  057%=      5-min Rain = 0
KCO2 241713Z 13010KT 31/22 A2995 RMK A01 T03100216  RH  057%=      5-min Rain = 0
KCO2 241714Z 12010KT 31/22 A2995 RMK A01 T03090218  RH  058%=      5-min Rain = 0
KCO2 241715Z 13010KT 31/22 A2995 RMK A01 T03110215  RH  057%=      5-min Rain = 0
KCO2 241716Z 12006KT 31/21 A2995 RMK A01 T03100214  RH  057%=      5-min Rain = 0
KCO2 241717Z 11006KT 31/21 A2995 RMK A01 T03080214  RH  057%=      5-min Rain = 0
KCO2 241718Z 11005KT 31/22 A2995 RMK A01 T03070216  RH  058%=      5-min Rain = 0
KCO2 241719Z 10006KT 31/21 A2995 RMK A01 T03070214  RH  057%=      5-min Rain = 0
KCO2 241720Z 10005KT 31/22 A2995 RMK A01 T03080218  RH  059%=      5-min Rain = 0
KCO2 241721Z 09006KT 31/22 A2995 RMK A01 T03100215  RH  057%=      5-min Rain = 0
KCO2 241722Z 07005KT 31/22 A2995 RMK A01 T03090215  RH  057%=      5-min Rain = 0
KCO2 241723Z 13004KT 31/21 A2995 RMK A01 T03080213  RH  057%=      5-min Rain = 0
KCO2 241724Z 13003KT 31/21 A2995 RMK A01 T03060213  RH  058%=      5-min Rain = 0
KCO2 241725Z 10003KT 30/21 A2995 RMK A01 T03040214  RH  059%=      5-min Rain = 0
KCO2 241726Z 10004KT 30/22 A2995 RMK A01 T03030215  RH  059%=      5-min Rain = 0
KCO2 241727Z 05004KT 30/21 A2995 RMK A01 T03030213  RH  059%=      5-min Rain = 0
KCO2 241728Z 05004KT 30/21 A2995 RMK A01 T03030213  RH  059%=      5-min Rain = 0
KCO2 241729Z 08007KT 30/21 A2995 RMK A01 T03010214  RH  059%=      5-min Rain = 0
KCO2 241730Z 09007KT 30/22 A2995 RMK A01 T03010215  RH  060%=      5-min Rain = 0
KCO2 241731Z 11007KT 30/22 A2995 RMK A01 T03020216  RH  060%=      5-min Rain = 0
KCO2 241732Z 09008KT 30/21 A2995 RMK A01 T03030214  RH  059%=      5-min Rain = 0
KCO2 241733Z 09009KT 31/22 A2995 RMK A01 T03050215  RH  058%=      5-min Rain = 0
KCO2 241734Z 09008KT 31/22 A2995 RMK A01 T03060215  RH  058%=      5-min Rain = 0
KCO2 241735Z 10009KT 31/22 A2995 RMK A01 T03060215  RH  058%=      5-min Rain = 0
KCO2 241736Z 10010KT 31/22 A2995 RMK A01 T03050216  RH  059%=      5-min Rain = 0
KCO2 241737Z 11008KT 31/22 A2995 RMK A01 T03050217  RH  059%=      5-min Rain = 0
KCO2 241738Z 12005KT 31/22 A2995 RMK A01 T03060218  RH  060%=      5-min Rain = 0
KCO2 241739Z 11006G12KT 31/22 A2995 RMK A01 T03080216  RH  058%=      5-min Rain = 0
KCO2 241740Z 10009KT 31/22 A2995 RMK A01 T03100220  RH  059%=      5-min Rain = 0
KCO2 241741Z 09007KT 31/22 A2995 RMK A01 T03100216  RH  057%=      5-min Rain = 0
KCO2 241742Z 07005KT 31/22 A2994 RMK A01 T03070215  RH  058%=      5-min Rain = 0
KCO2 241743Z 12002KT 31/22 A2994 RMK A01 T03050217  RH  060%=      5-min Rain = 0
KCO2 241744Z 14004KT 31/22 A2994 RMK A01 T03060217  RH  059%=      5-min Rain = 0
KCO2 241745Z 09005KT 31/22 A2994 RMK A01 T03070218  RH  059%=      5-min Rain = 0
KCO2 241746Z 10005KT 31/22 A2994 RMK A01 T03080216  RH  058%=      5-min Rain = 0
KCO2 241747Z 09007G14KT 31/22 A2994 RMK A01 T03070216  RH  059%=      5-min Rain = 0
KCO2 241748Z 09011KT 31/22 A2994 RMK A01 T03060217  RH  059%=      5-min Rain = 0
KCO2 241749Z 09010KT 31/22 A2994 RMK A01 T03060217  RH  059%=      5-min Rain = 0
KCO2 241750Z 09010KT 31/22 A2994 RMK A01 T03090220  RH  059%=      5-min Rain = 0
KCO2 241751Z 10008KT 31/22 A2994 RMK A01 T03110218  RH  058%=      5-min Rain = 0
KCO2 241752Z 10008KT 31/22 A2994 RMK A01 T03120221  RH  058%=      5-min Rain = 0
KCO2 241753Z 10007KT 31/22 A2994 RMK A01 T03140221  RH  058%=      5-min Rain = 0
KCO2 241754Z 09006KT 32/22 A2994 RMK A01 T03150220  RH  057%=      5-min Rain = 0
KCO2 241755Z 11007KT 32/22 A2994 RMK A01 T03160222  RH  057%=      5-min Rain = 0
KCO2 241756Z 12005G10KT 32/22 A2994 RMK A01 T03180219  RH  056%=      5-min Rain = 0
KCO2 241757Z 11009KT 32/22 A2994 RMK A01 T03170221  RH  057%=      5-min Rain = 0
KCO2 241758Z 11010KT 32/22 A2994 RMK A01 T03160221  RH  057%=      5-min Rain = 0
KCO2 241759Z 10011KT 32/22 A2994 RMK A01 T03170223  RH  058%=      5-min Rain = 0
KCO2 241800Z 10006KT 32/22 A2994 RMK A01 T03180219  RH  056%=      5-min Rain = 0
KCO2 241801Z 10005KT 32/22 A2994 RMK A01 T03160220  RH  057%=      5-min Rain = 0
KCO2 241802Z 07008KT 32/22 A2994 RMK A01 T03150219  RH  057%=      5-min Rain = 0
KCO2 241803Z 08010KT 32/22 A2994 RMK A01 T03150219  RH  057%=      5-min Rain = 0
KCO2 241804Z 07007KT 32/22 A2994 RMK A01 T03150216  RH  056%=      5-min Rain = 0
KCO2 241805Z 10008KT 31/22 A2994 RMK A01 T03140219  RH  057%=      5-min Rain = 0
KCO2 241806Z 11006KT 32/22 A2994 RMK A01 T03150218  RH  057%=      5-min Rain = 0
KCO2 241807Z 08007KT 32/22 A2994 RMK A01 T03150219  RH  057%=      5-min Rain = 0
KCO2 241808Z 07008KT 32/22 A2994 RMK A01 T03160218  RH  056%=      5-min Rain = 0
KCO2 241809Z 07006KT 32/21 A2994 RMK A01 T03170213  RH  054%=      5-min Rain = 0
KCO2 241810Z 07003KT 31/22 A2994 RMK A01 T03140215  RH  056%=      5-min Rain = 0
KCO2 241811Z 05003KT 31/22 A2994 RMK A01 T03130216  RH  056%=      5-min Rain = 0
KCO2 241812Z 08006KT 32/22 A2994 RMK A01 T03150219  RH  057%=      5-min Rain = 0
KCO2 241813Z 11005KT 32/22 A2994 RMK A01 T03170218  RH  056%=      5-min Rain = 0
KCO2 241814Z 11008KT 32/22 A2994 RMK A01 T03180219  RH  056%=      5-min Rain = 0
KCO2 241815Z 10009KT 32/22 A2994 RMK A01 T03190220  RH  056%=      5-min Rain = 0
KCO2 241816Z 11008KT 32/22 A2994 RMK A01 T03200220  RH  055%=      5-min Rain = 0
KCO2 241817Z 11006KT 32/22 A2994 RMK A01 T03190219  RH  055%=      5-min Rain = 0
KCO2 241818Z 09007KT 32/22 A2994 RMK A01 T03160218  RH  056%=      5-min Rain = 0
KCO2 241819Z 09008KT 31/22 A2993 RMK A01 T03140221  RH  058%=      5-min Rain = 0
KCO2 241820Z 12009KT 32/22 A2994 RMK A01 T03170221  RH  057%=      5-min Rain = 0
KCO2 241821Z 10010KT 32/22 A2993 RMK A01 T03200220  RH  056%=      5-min Rain = 0
KCO2 241822Z 08012KT 32/22 A2994 RMK A01 T03230220  RH  055%=      5-min Rain = 0
KCO2 241823Z 08011KT 32/22 A2994 RMK A01 T03230220  RH  055%=      5-min Rain = 0
KCO2 241824Z 10010KT 32/22 A2993 RMK A01 T03210218  RH  054%=      5-min Rain = 0
KCO2 241825Z 08008KT 32/22 A2993 RMK A01 T03190218  RH  055%=      5-min Rain = 0
KCO2 241826Z 08009G16KT 32/22 A2993 RMK A01 T03180218  RH  056%=      5-min Rain = 0
KCO2 241827Z 08010G15KT 32/22 A2993 RMK A01 T03180219  RH  056%=      5-min Rain = 0
KCO2 241828Z 08008KT 32/22 A2993 RMK A01 T03190218  RH  055%=      5-min Rain = 0
KCO2 241829Z 10008G13KT 32/22 A2993 RMK A01 T03200221  RH  056%=      5-min Rain = 0
KCO2 241830Z 09009KT 32/22 A2993 RMK A01 T03210220  RH  055%=      5-min Rain = 0
KCO2 241831Z 08008KT 32/22 A2993 RMK A01 T03220221  RH  055%=      5-min Rain = 0
KCO2 241832Z 07008KT 32/22 A2993 RMK A01 T03230219  RH  054%=      5-min Rain = 0
KCO2 241833Z 06007KT 32/22 A2993 RMK A01 T03220218  RH  054%=      5-min Rain = 0
KCO2 241834Z 07007KT 32/22 A2993 RMK A01 T03200218  RH  055%=      5-min Rain = 0
KCO2 241835Z 09006KT 32/22 A2993 RMK A01 T03200219  RH  055%=      5-min Rain = 0
KCO2 241836Z 11006KT 32/22 A2993 RMK A01 T03200220  RH  055%=      5-min Rain = 0
KCO2 241837Z 13009KT 32/22 A2993 RMK A01 T03230219  RH  054%=      5-min Rain = 0
KCO2 241838Z 10008KT 32/22 A2993 RMK A01 T03210218  RH  055%=      5-min Rain = 0
KCO2 241839Z 08008KT 32/22 A2993 RMK A01 T03200219  RH  055%=      5-min Rain = 0
KCO2 241840Z 11010KT 32/22 A2993 RMK A01 T03200221  RH  056%=      5-min Rain = 0
KCO2 241841Z 11009KT 32/22 A2993 RMK A01 T03220219  RH  055%=      5-min Rain = 0
KCO2 241842Z 11009KT 32/22 A2993 RMK A01 T03220221  RH  055%=      5-min Rain = 0
KCO2 241843Z 12008KT 32/22 A2993 RMK A01 T03220223  RH  056%=      5-min Rain = 0
KCO2 241844Z 12011KT 32/22 A2993 RMK A01 T03230220  RH  055%=      5-min Rain = 0
KCO2 241845Z 10010KT 32/22 A2993 RMK A01 T03240221  RH  055%=      5-min Rain = 0
KCO2 241846Z 10009G14KT 32/22 A2993 RMK A01 T03230220  RH  055%=      5-min Rain = 0
KCO2 241847Z 11008KT 32/22 A2993 RMK A01 T03200219  RH  055%=      5-min Rain = 0
KCO2 241848Z 10007KT 32/22 A2993 RMK A01 T03200220  RH  056%=      5-min Rain = 0
KCO2 241849Z 10007KT 32/22 A2993 RMK A01 T03210220  RH  055%=      5-min Rain = 0
KCO2 241850Z 11005KT 32/22 A2993 RMK A01 T03210220  RH  055%=      5-min Rain = 0
KCO2 241851Z 12012KT 32/22 A2993 RMK A01 T03220223  RH  056%=      5-min Rain = 0
KCO2 241852Z 10011KT 33/22 A2993 RMK A01 T03250221  RH  054%=      5-min Rain = 0
KCO2 241853Z 10010KT 33/22 A2993 RMK A01 T03250223  RH  055%=      5-min Rain = 0
KCO2 241854Z 08008KT 33/22 A2993 RMK A01 T03260220  RH  054%=      5-min Rain = 0
KCO2 241855Z 10010KT 32/22 A2993 RMK A01 T03240222  RH  055%=      5-min Rain = 0
KCO2 241856Z 11012G17KT 32/22 A2992 RMK A01 T03240223  RH  055%=      5-min Rain = 0
KCO2 241857Z 12010KT 33/23 A2992 RMK A01 T03260225  RH  055%=      5-min Rain = 0
KCO2 241858Z 13009KT 33/22 A2992 RMK A01 T03280222  RH  054%=      5-min Rain = 0
KCO2 241859Z 12007KT 33/22 A2992 RMK A01 T03280220  RH  053%=      5-min Rain = 0
KCO2 241900Z 09010G15KT 33/22 A2993 RMK A01 T03260221  RH  054%=      5-min Rain = 0
KCO2 241901Z 09007KT 32/22 A2992 RMK A01 T03240217  RH  053%=      5-min Rain = 0
KCO2 241902Z 11004KT 32/22 A2992 RMK A01 T03210219  RH  055%=      5-min Rain = 0
KCO2 241903Z 13005KT 32/22 A2992 RMK A01 T03210218  RH  054%=      5-min Rain = 0
KCO2 241904Z 09009KT 32/22 A2992 RMK A01 T03230222  RH  055%=      5-min Rain = 0
KCO2 241905Z 09012KT 33/22 A2992 RMK A01 T03260221  RH  054%=      5-min Rain = 0
KCO2 241906Z 09014KT 33/22 A2992 RMK A01 T03260222  RH  054%=      5-min Rain = 0
KCO2 241907Z 10014KT 33/22 A2992 RMK A01 T03270220  RH  053%=      5-min Rain = 0
KCO2 241908Z 09010KT 33/22 A2992 RMK A01 T03260222  RH  054%=      5-min Rain = 0
KCO2 241909Z 08012KT 32/22 A2992 RMK A01 T03240218  RH  054%=      5-min Rain = 0
KCO2 241910Z 08010KT 32/22 A2992 RMK A01 T03220220  RH  055%=      5-min Rain = 0
KCO2 241911Z 08012KT 32/22 A2992 RMK A01 T03240218  RH  053%=      5-min Rain = 0
KCO2 241912Z 08011KT 32/22 A2992 RMK A01 T03240215  RH  053%=      5-min Rain = 0
KCO2 241913Z 08010KT 32/22 A2992 RMK A01 T03210217  RH  054%=      5-min Rain = 0
KCO2 241914Z 09008KT 32/22 A2992 RMK A01 T03190215  RH  054%=      5-min Rain = 0
KCO2 241915Z 08009KT 32/22 A2992 RMK A01 T03170216  RH  055%=      5-min Rain = 0
KCO2 241916Z 09011KT 32/22 A2992 RMK A01 T03180218  RH  056%=      5-min Rain = 0
KCO2 241917Z 10013KT 32/22 A2992 RMK A01 T03210218  RH  054%=      5-min Rain = 0
KCO2 241918Z 11010KT 32/22 A2992 RMK A01 T03230219  RH  054%=      5-min Rain = 0
KCO2 241919Z 12011KT 33/22 A2992 RMK A01 T03250219  RH  054%=      5-min Rain = 0
KCO2 241920Z 10011KT 33/22 A2992 RMK A01 T03260219  RH  054%=      5-min Rain = 0
KCO2 241921Z 11013KT 33/22 A2992 RMK A01 T03260220  RH  053%=      5-min Rain = 0
KCO2 241922Z 12009KT 33/22 A2992 RMK A01 T03250219  RH  054%=      5-min Rain = 0
KCO2 241923Z 11007KT 32/22 A2992 RMK A01 T03230220  RH  054%=      5-min Rain = 0
KCO2 241924Z 09010KT 32/22 A2992 RMK A01 T03240222  RH  055%=      5-min Rain = 0
KCO2 241925Z 08013KT 33/22 A2991 RMK A01 T03260218  RH  053%=      5-min Rain = 0
KCO2 241926Z 08011KT 33/22 A2991 RMK A01 T03260219  RH  053%=      5-min Rain = 0
KCO2 241927Z 07008KT 33/22 A2991 RMK A01 T03270217  RH  052%=      5-min Rain = 0
KCO2 241928Z 08008KT 33/22 A2991 RMK A01 T03280218  RH  053%=      5-min Rain = 0
KCO2 241929Z 09006KT 33/22 A2991 RMK A01 T03270217  RH  053%=      5-min Rain = 0
KCO2 241930Z 08008G14KT 33/22 A2991 RMK A01 T03250217  RH  053%=      5-min Rain = 0
KCO2 241931Z 09013KT 33/22 A2991 RMK A01 T03260220  RH  054%=      5-min Rain = 0
KCO2 241932Z 08014KT 33/22 A2991 RMK A01 T03280220  RH  053%=      5-min Rain = 0
KCO2 241933Z 08013KT 33/22 A2991 RMK A01 T03300220  RH  052%=      5-min Rain = 0
KCO2 241934Z 09012KT 33/22 A2991 RMK A01 T03300218  RH  052%=      5-min Rain = 0
KCO2 241935Z 09010KT 33/22 A2991 RMK A01 T03250216  RH  053%=      5-min Rain = 0
KCO2 241936Z 09009KT 32/22 A2991 RMK A01 T03200215  RH  054%=      5-min Rain = 0
KCO2 241937Z 11010KT 32/22 A2991 RMK A01 T03180217  RH  055%=      5-min Rain = 0
KCO2 241938Z 10010KT 32/22 A2991 RMK A01 T03180217  RH  055%=      5-min Rain = 0
KCO2 241939Z 09011KT 32/22 A2991 RMK A01 T03190216  RH  055%=      5-min Rain = 0
KCO2 241940Z 08009KT 32/22 A2991 RMK A01 T03190217  RH  055%=      5-min Rain = 0
KCO2 241941Z 08009KT 32/22 A2991 RMK A01 T03210216  RH  054%=      5-min Rain = 0
KCO2 241942Z 07007KT 32/22 A2991 RMK A01 T03220216  RH  053%=      5-min Rain = 0
KCO2 241943Z 09011G17KT 32/22 A2991 RMK A01 T03220217  RH  054%=      5-min Rain = 0
KCO2 241944Z 09006KT 32/21 A2991 RMK A01 T03220214  RH  053%=      5-min Rain = 0
KCO2 241945Z 07008KT 32/22 A2991 RMK A01 T03220215  RH  053%=      5-min Rain = 0
KCO2 241946Z 06008KT 33/21 A2991 RMK A01 T03250213  RH  052%=      5-min Rain = 0
KCO2 241947Z 10008KT 32/21 A2991 RMK A01 T03240213  RH  052%=      5-min Rain = 0
KCO2 241948Z 11010KT 32/22 A2991 RMK A01 T03220216  RH  053%=      5-min Rain = 0
KCO2 241949Z 09011KT 32/22 A2991 RMK A01 T03210215  RH  053%=      5-min Rain = 0
KCO2 241950Z 10012KT 32/22 A2991 RMK A01 T03210215  RH  054%=      5-min Rain = 0
KCO2 241951Z 09014KT 32/22 A2991 RMK A01 T03220215  RH  053%=      5-min Rain = 0
KCO2 241952Z 10013KT 33/21 A2991 RMK A01 T03250214  RH  052%=      5-min Rain = 0
KCO2 241953Z 09011KT 33/22 A2991 RMK A01 T03270215  RH  052%=      5-min Rain = 0
KCO2 241954Z 10010KT 33/22 A2991 RMK A01 T03290215  RH  051%=      5-min Rain = 0
KCO2 241955Z 11010KT 33/22 A2991 RMK A01 T03290217  RH  052%=      5-min Rain = 0
KCO2 241956Z 09009KT 33/22 A2991 RMK A01 T03300215  RH  051%=      5-min Rain = 0
KCO2 241957Z 09010KT 33/22 A2991 RMK A01 T03290217  RH  052%=      5-min Rain = 0
KCO2 241958Z 09010KT 33/22 A2991 RMK A01 T03290219  RH  052%=      5-min Rain = 0
KCO2 241959Z 09009KT 33/22 A299 RMK A01 T03310221  RH  053%=      5-min Rain = 0
KCO2 242000Z 09009KT 33/22 A299 RMK A01 T03300219  RH  052%=      5-min Rain = 0
KCO2 242001Z 09011KT 33/22 A2991 RMK A01 T03280218  RH  053%=      5-min Rain = 0
KCO2 242002Z 08011KT 33/22 A2991 RMK A01 T03250215  RH  052%=      5-min Rain = 0
KCO2 242003Z 08008KT 32/21 A2991 RMK A01 T03230213  RH  052%=      5-min Rain = 0
KCO2 242004Z 10008KT 32/22 A2991 RMK A01 T03230215  RH  053%=      5-min Rain = 0
KCO2 242005Z 09008KT 33/22 A2991 RMK A01 T03260217  RH  053%=      5-min Rain = 0
KCO2 242006Z 10009KT 33/22 A299 RMK A01 T03280216  RH  052%=      5-min Rain = 0
KCO2 242007Z 06006KT 33/22 A299 RMK A01 T03310215  RH  051%=      5-min Rain = 0
KCO2 242008Z 08004KT 33/22 A299 RMK A01 T03330218  RH  051%=      5-min Rain = 0
KCO2 242009Z 09007KT 34/22 A299 RMK A01 T03360216  RH  050%=      5-min Rain = 0
KCO2 242010Z 08009KT 33/22 A299 RMK A01 T03320215  RH  050%=      5-min Rain = 0
KCO2 242011Z 08010KT 33/22 A299 RMK A01 T03290216  RH  052%=      5-min Rain = 0
KCO2 242012Z 09012KT 33/22 A299 RMK A01 T03280216  RH  052%=      5-min Rain = 0
KCO2 242013Z 10010KT 33/22 A299 RMK A01 T03280216  RH  052%=      5-min Rain = 0
KCO2 242014Z 10010KT 33/21 A299 RMK A01 T03310213  RH  050%=      5-min Rain = 0
KCO2 242015Z 09009KT 33/21 A299 RMK A01 T03280210  RH  050%=      5-min Rain = 0
KCO2 242016Z 09007KT 33/21 A299 RMK A01 T03260211  RH  051%=      5-min Rain = 0
KCO2 242017Z 09005KT 32/21 A299 RMK A01 T03240213  RH  052%=      5-min Rain = 0
KCO2 242018Z 10005KT 32/21 A299 RMK A01 T03240211  RH  051%=      5-min Rain = 0
KCO2 242019Z 13006KT 32/21 A299 RMK A01 T03230214  RH  053%=      5-min Rain = 0
KCO2 242020Z 14008KT 32/21 A299 RMK A01 T03230212  RH  052%=      5-min Rain = 0
KCO2 242021Z 10009KT 32/21 A299 RMK A01 T03230210  RH  051%=      5-min Rain = 0
KCO2 242022Z 11006KT 32/21 A299 RMK A01 T03210207  RH  051%=      5-min Rain = 0
KCO2 242023Z 11005KT 32/21 A299 RMK A01 T03200210  RH  052%=      5-min Rain = 0
KCO2 242024Z 13004KT 32/21 A299 RMK A01 T03200209  RH  052%=      5-min Rain = 0
KCO2 242025Z 13004KT 32/20 A299 RMK A01 T03200202  RH  050%=      5-min Rain = 0
KCO2 242026Z 10007KT 32/21 A299 RMK A01 T03210210  RH  052%=      5-min Rain = 0
KCO2 242027Z 13011KT 32/21 A299 RMK A01 T03240210  RH  051%=      5-min Rain = 0
KCO2 242028Z 13010KT 33/21 A299 RMK A01 T03250212  RH  051%=      5-min Rain = 0
KCO2 242029Z 12012KT 32/21 A299 RMK A01 T03240213  RH  052%=      5-min Rain = 0
KCO2 242030Z 14009KT 32/21 A299 RMK A01 T03240214  RH  052%=      5-min Rain = 0
KCO2 242031Z 14009KT 33/21 A299 RMK A01 T03260212  RH  051%=      5-min Rain = 0
KCO2 242032Z 15009KT 33/21 A299 RMK A01 T03300214  RH  051%=      5-min Rain = 0
KCO2 242033Z 13007KT 33/21 A299 RMK A01 T03310212  RH  050%=      5-min Rain = 0
KCO2 242034Z 14006KT 33/22 A299 RMK A01 T03310215  RH  051%=      5-min Rain = 0
KCO2 242035Z 15005KT 33/21 A299 RMK A01 T03290210  RH  050%=      5-min Rain = 0
KCO2 242036Z 14006KT 33/21 A299 RMK A01 T03280211  RH  050%=      5-min Rain = 0
KCO2 242037Z 13007KT 33/21 A299 RMK A01 T03290211  RH  050%=      5-min Rain = 0
KCO2 242038Z 13009KT 33/21 A299 RMK A01 T03310209  RH  049%=      5-min Rain = 0
KCO2 242039Z 13008KT 33/21 A2989 RMK A01 T03330209  RH  048%=      5-min Rain = 0
KCO2 242040Z 12004KT 33/21 A2989 RMK A01 T03340210  RH  048%=      5-min Rain = 0
KCO2 242041Z 14003KT 34/21 A2989 RMK A01 T03350210  RH  048%=      5-min Rain = 0
KCO2 242042Z 12009KT 34/21 A2989 RMK A01 T03380214  RH  048%=      5-min Rain = 0
KCO2 242043Z 14009KT 34/22 A2989 RMK A01 T03400215  RH  048%=      5-min Rain = 0
KCO2 242044Z 13008KT 34/22 A2989 RMK A01 T03410218  RH  049%=      5-min Rain = 0
KCO2 242045Z 15011KT 35/22 A2989 RMK A01 T03450217  RH  048%=      5-min Rain = 0
KCO2 242046Z 15011KT 35/22 A2989 RMK A01 T03450215  RH  047%=      5-min Rain = 0
KCO2 242047Z 14012KT 34/21 A2989 RMK A01 T03420211  RH  046%=      5-min Rain = 0
KCO2 242048Z 14008KT 34/21 A2989 RMK A01 T03390208  RH  046%=      5-min Rain = 0
KCO2 242049Z 15009KT 34/21 A2989 RMK A01 T03370213  RH  048%=      5-min Rain = 0
KCO2 242050Z 16009KT 34/21 A2989 RMK A01 T03370212  RH  048%=      5-min Rain = 0
KCO2 242051Z 17007KT 34/21 A2989 RMK A01 T03370209  RH  047%=      5-min Rain = 0
KCO2 242052Z 15006KT 34/21 A2989 RMK A01 T03380213  RH  048%=      5-min Rain = 0
KCO2 242053Z 15006KT 34/21 A2989 RMK A01 T03400206  RH  045%=      5-min Rain = 0
KCO2 242054Z 14007KT 34/21 A2988 RMK A01 T03400212  RH  047%=      5-min Rain = 0
KCO2 242055Z 12008KT 34/21 A2988 RMK A01 T03400211  RH  047%=      5-min Rain = 0
KCO2 242056Z 13006KT 34/21 A2988 RMK A01 T03410210  RH  046%=      5-min Rain = 0
KCO2 242057Z 13004KT 34/21 A2988 RMK A01 T03410209  RH  046%=      5-min Rain = 0
KCO2 242058Z 12006KT 34/21 A2988 RMK A01 T03420207  RH  045%=      5-min Rain = 0
KCO2 242059Z 10005KT 34/22 A2988 RMK A01 T03410215  RH  048%=      5-min Rain = 0
KCO2 242100Z 09012G21KT 34/22 A2988 RMK A01 T03410217  RH  048%=      5-min Rain = 0
KCO2 242101Z 13009G17KT 34/22 A2987 RMK A01 T03420218  RH  048%=      5-min Rain = 0
KCO2 242102Z 11011KT 34/22 A2987 RMK A01 T03430218  RH  048%=      5-min Rain = 0
KCO2 242103Z 11011KT 35/22 A2988 RMK A01 T03450218  RH  048%=      5-min Rain = 0
KCO2 242104Z 11012KT 34/22 A2987 RMK A01 T03430216  RH  048%=      5-min Rain = 0
KCO2 242105Z 10010KT 34/22 A2987 RMK A01 T03400217  RH  049%=      5-min Rain = 0
KCO2 242106Z 12008KT 34/22 A2987 RMK A01 T03400217  RH  049%=      5-min Rain = 0
KCO2 242107Z 11009KT 34/22 A2987 RMK A01 T03420219  RH  049%=      5-min Rain = 0
KCO2 242108Z 11007KT 34/22 A2987 RMK A01 T03440217  RH  048%=      5-min Rain = 0
KCO2 242109Z 12008KT 34/22 A2987 RMK A01 T03440215  RH  047%=      5-min Rain = 0
KCO2 242110Z 15008KT 34/21 A2987 RMK A01 T03440213  RH  047%=      5-min Rain = 0
KCO2 242111Z 14008KT 35/21 A2987 RMK A01 T03450213  RH  046%=      5-min Rain = 0
KCO2 242112Z 11008KT 35/21 A2987 RMK A01 T03450211  RH  046%=      5-min Rain = 0
KCO2 242113Z 11007KT 34/21 A2987 RMK A01 T03430210  RH  046%=      5-min Rain = 0
KCO2 242114Z 12007KT 34/21 A2987 RMK A01 T03410211  RH  047%=      5-min Rain = 0
KCO2 242115Z 13005KT 34/21 A2987 RMK A01 T03420208  RH  046%=      5-min Rain = 0
KCO2 242116Z 10005G10KT 34/21 A2986 RMK A01 T03420208  RH  045%=      5-min Rain = 0
KCO2 242117Z 09008KT 34/21 A2986 RMK A01 T03420208  RH  045%=      5-min Rain = 0
KCO2 242118Z 10007KT 34/21 A2986 RMK A01 T03400207  RH  046%=      5-min Rain = 0
KCO2 242119Z 12006KT 34/21 A2986 RMK A01 T03400208  RH  046%=      5-min Rain = 0
KCO2 242120Z 14005KT 34/21 A2986 RMK A01 T03410206  RH  045%=      5-min Rain = 0
KCO2 242121Z 13004KT 34/21 A2986 RMK A01 T03420205  RH  045%=      5-min Rain = 0
KCO2 242122Z 11005KT 34/21 A2986 RMK A01 T03420210  RH  046%=      5-min Rain = 0
KCO2 242123Z 13008KT 34/21 A2986 RMK A01 T03420209  RH  046%=      5-min Rain = 0
KCO2 242124Z 12009KT 34/21 A2986 RMK A01 T03400205  RH  045%=      5-min Rain = 0
KCO2 242125Z 11008KT 34/20 A2986 RMK A01 T03360204  RH  046%=      5-min Rain = 0
KCO2 242126Z 10008KT 33/20 A2986 RMK A01 T03320201  RH  046%=      5-min Rain = 0
KCO2 242127Z 11007KT 33/20 A2986 RMK A01 T03290200  RH  047%=      5-min Rain = 0
KCO2 242128Z 11008KT 33/20 A2986 RMK A01 T03270199  RH  047%=      5-min Rain = 0
KCO2 242129Z 11007KT 33/20 A2986 RMK A01 T03260198  RH  047%=      5-min Rain = 0
KCO2 242130Z 11008KT 33/20 A2986 RMK A01 T03250197  RH  047%=      5-min Rain = 0
KCO2 242131Z 10007KT 33/20 A2986 RMK A01 T03250197  RH  047%=      5-min Rain = 0
KCO2 242132Z 12006KT 32/20 A2986 RMK A01 T03240200  RH  048%=      5-min Rain = 0
KCO2 242133Z 11007KT 32/20 A2986 RMK A01 T03240200  RH  048%=      5-min Rain = 0
KCO2 242134Z 10005KT 33/20 A2986 RMK A01 T03250198  RH  047%=      5-min Rain = 0
KCO2 242135Z 10006KT 33/20 A2986 RMK A01 T03250200  RH  048%=      5-min Rain = 0
KCO2 242136Z 10006KT 33/20 A2986 RMK A01 T03260198  RH  047%=      5-min Rain = 0
KCO2 242137Z 12006KT 33/20 A2986 RMK A01 T03250199  RH  048%=      5-min Rain = 0
KCO2 242138Z 12006KT 33/20 A2986 RMK A01 T03250198  RH  047%=      5-min Rain = 0
KCO2 242139Z 11008KT 33/20 A2986 RMK A01 T03250197  RH  047%=      5-min Rain = 0
KCO2 242140Z 11008KT 32/19 A2986 RMK A01 T03240194  RH  046%=      5-min Rain = 0
KCO2 242141Z 11007KT 32/20 A2986 RMK A01 T03240196  RH  047%=      5-min Rain = 0
KCO2 242142Z 12006KT 32/19 A2986 RMK A01 T03230190  RH  045%=      5-min Rain = 0
KCO2 242143Z 10006KT 32/19 A2986 RMK A01 T03230191  RH  046%=      5-min Rain = 0
KCO2 242144Z 10006KT 32/19 A2986 RMK A01 T03230193  RH  046%=      5-min Rain = 0
KCO2 242145Z 10006KT 32/20 A2986 RMK A01 T03230200  RH  048%=      5-min Rain = 0
KCO2 242146Z 09007KT 32/20 A2986 RMK A01 T03220202  RH  049%=      5-min Rain = 0
KCO2 242147Z 08007KT 32/21 A2986 RMK A01 T03210205  RH  050%=      5-min Rain = 0
KCO2 242148Z 09008KT 32/21 A2986 RMK A01 T03210206  RH  051%=      5-min Rain = 0
KCO2 242149Z 10009KT 32/21 A2986 RMK A01 T03210205  RH  050%=      5-min Rain = 0
KCO2 242150Z 10010KT 32/20 A2986 RMK A01 T03210204  RH  050%=      5-min Rain = 0
KCO2 242151Z 10009KT 32/20 A2986 RMK A01 T03200203  RH  050%=      5-min Rain = 0
KCO2 242152Z 10008KT 32/20 A2986 RMK A01 T03190203  RH  050%=      5-min Rain = 0
KCO2 242153Z 10008KT 32/20 A2986 RMK A01 T03180203  RH  050%=      5-min Rain = 0
KCO2 242154Z 10009KT 32/20 A2986 RMK A01 T03180201  RH  050%=      5-min Rain = 0
KCO2 242155Z 10008KT 32/20 A2986 RMK A01 T03180199  RH  049%=      5-min Rain = 0
KCO2 242156Z 10007KT 32/20 A2986 RMK A01 T03180201  RH  050%=      5-min Rain = 0
KCO2 242157Z 11008KT 32/20 A2986 RMK A01 T03170200  RH  050%=      5-min Rain = 0
KCO2 242158Z 11006KT 32/20 A2986 RMK A01 T03170199  RH  050%=      5-min Rain = 0
KCO2 242159Z 10006KT 32/20 A2986 RMK A01 T03170201  RH  050%=      5-min Rain = 0
KCO2 242200Z 10005KT 32/20 A2986 RMK A01 T03160203  RH  051%=      5-min Rain = 0
KCO2 242201Z 11006KT 32/20 A2986 RMK A01 T03150204  RH  052%=      5-min Rain = 0
KCO2 242202Z 11005KT 31/21 A2986 RMK A01 T03140205  RH  052%=      5-min Rain = 0
KCO2 242203Z 11005KT 31/21 A2986 RMK A01 T03140206  RH  053%=      5-min Rain = 0
KCO2 242204Z 10004KT 31/21 A2986 RMK A01 T03130207  RH  053%=      5-min Rain = 0
KCO2 242205Z 12005KT 31/21 A2986 RMK A01 T03130209  RH  054%=      5-min Rain = 0
KCO2 242206Z 12005KT 31/21 A2986 RMK A01 T03130209  RH  054%=      5-min Rain = 0
KCO2 242207Z 12005KT 31/21 A2986 RMK A01 T03120211  RH  055%=      5-min Rain = 0
KCO2 242208Z 13006KT 31/21 A2986 RMK A01 T03110210  RH  055%=      5-min Rain = 0
KCO2 242209Z 12006KT 31/21 A2986 RMK A01 T03110210  RH  055%=      5-min Rain = 0
KCO2 242210Z 12007KT 31/21 A2986 RMK A01 T03100208  RH  055%=      5-min Rain = 0
KCO2 242211Z 11005KT 31/21 A2986 RMK A01 T03110209  RH  055%=      5-min Rain = 0
KCO2 242212Z 11006KT 31/21 A2985 RMK A01 T03100210  RH  055%=      5-min Rain = 0
KCO2 242213Z 10005KT 31/21 A2985 RMK A01 T03100210  RH  055%=      5-min Rain = 0
KCO2 242214Z 10006KT 31/21 A2985 RMK A01 T03100210  RH  055%=      5-min Rain = 0
KCO2 242215Z 09005KT 31/21 A2985 RMK A01 T03090210  RH  055%=      5-min Rain = 0
KCO2 242216Z 09005KT 31/21 A2985 RMK A01 T03090211  RH  056%=      5-min Rain = 0
KCO2 242217Z 10006KT 31/21 A2985 RMK A01 T03100211  RH  056%=      5-min Rain = 0
KCO2 242218Z 10005KT 31/21 A2985 RMK A01 T03090210  RH  056%=      5-min Rain = 0
KCO2 242219Z 10005KT 31/21 A2985 RMK A01 T03090211  RH  056%=      5-min Rain = 0
KCO2 242220Z 09005KT 31/21 A2985 RMK A01 T03090211  RH  056%=      5-min Rain = 0
KCO2 242221Z 09005KT 31/21 A2985 RMK A01 T03080211  RH  056%=      5-min Rain = 0
KCO2 242222Z 09006KT 31/21 A2984 RMK A01 T03080211  RH  056%=      5-min Rain = 0
KCO2 242223Z 09006KT 31/21 A2984 RMK A01 T03080211  RH  056%=      5-min Rain = 0
KCO2 242224Z 09007KT 31/21 A2984 RMK A01 T03080208  RH  055%=      5-min Rain = 0
KCO2 242225Z 09006KT 31/21 A2984 RMK A01 T03080209  RH  056%=      5-min Rain = 0
KCO2 242226Z 09007KT 31/21 A2984 RMK A01 T03080208  RH  055%=      5-min Rain = 0
KCO2 242227Z 09007KT 31/21 A2984 RMK A01 T03080208  RH  055%=      5-min Rain = 0
KCO2 242228Z 09006KT 31/21 A2984 RMK A01 T03080209  RH  056%=      5-min Rain = 0
KCO2 242229Z 08006KT 31/21 A2984 RMK A01 T03070209  RH  056%=      5-min Rain = 0
KCO2 242230Z 09006KT 31/21 A2984 RMK A01 T03060209  RH  056%=      5-min Rain = 0
KCO2 242231Z 09006KT 31/21 A2985 RMK A01 T03060208  RH  056%=      5-min Rain = 0
KCO2 242232Z 09006KT 31/21 A2985 RMK A01 T03060206  RH  055%=      5-min Rain = 0
KCO2 242233Z 08005KT 31/21 A2985 RMK A01 T03060206  RH  055%=      5-min Rain = 0
KCO2 242234Z 09006KT 31/21 A2985 RMK A01 T03060206  RH  055%=      5-min Rain = 0
KCO2 242235Z 09007KT 31/21 A2985 RMK A01 T03060206  RH  055%=      5-min Rain = 0
KCO2 242236Z 09007KT 31/21 A2985 RMK A01 T03060206  RH  055%=      5-min Rain = 0
KCO2 242237Z 10007KT 31/21 A2984 RMK A01 T03060206  RH  055%=      5-min Rain = 0
KCO2 242238Z 10007KT 31/21 A2984 RMK A01 T03060206  RH  055%=      5-min Rain = 0
KCO2 242239Z 10007KT 31/21 A2984 RMK A01 T03050206  RH  055%=      5-min Rain = 0
KCO2 242240Z 09007KT 31/21 A2984 RMK A01 T03050207  RH  056%=      5-min Rain = 0
KCO2 242241Z 09007KT 31/21 A2984 RMK A01 T03050207  RH  056%=      5-min Rain = 0
KCO2 242242Z 10007KT 31/21 A2984 RMK A01 T03050207  RH  056%=      5-min Rain = 0
KCO2 242243Z 09007KT 30/21 A2985 RMK A01 T03040207  RH  056%=      5-min Rain = 0
KCO2 242244Z 08006KT 30/21 A2985 RMK A01 T03040208  RH  056%=      5-min Rain = 0
KCO2 242245Z 08007KT 30/21 A2985 RMK A01 T03040207  RH  056%=      5-min Rain = 0
KCO2 242246Z 09007KT 30/21 A2985 RMK A01 T03040209  RH  057%=      5-min Rain = 0
KCO2 242247Z 09007KT 30/21 A2985 RMK A01 T03040211  RH  057%=      5-min Rain = 0
KCO2 242248Z 09008KT 30/21 A2985 RMK A01 T03040212  RH  058%=      5-min Rain = 0
KCO2 242249Z 10008KT 30/21 A2986 RMK A01 T03040212  RH  058%=      5-min Rain = 0
KCO2 242250Z 09008KT 30/21 A2986 RMK A01 T03040212  RH  058%=      5-min Rain = 0
KCO2 242251Z 09008KT 30/21 A2986 RMK A01 T03030213  RH  059%=      5-min Rain = 0
KCO2 242252Z 09011KT 30/22 A2986 RMK A01 T03040215  RH  059%=      5-min Rain = 0
KCO2 242253Z 08012KT 30/22 A2986 RMK A01 T03030217  RH  060%=      5-min Rain = 0
KCO2 242254Z 08013KT 30/22 A2985 RMK A01 T03030219  RH  061%=      5-min Rain = 0
KCO2 242255Z 09012KT 30/22 A2985 RMK A01 T03030219  RH  061%=      5-min Rain = 0
KCO2 242256Z 08012KT 30/22 A2986 RMK A01 T03030220  RH  061%=      5-min Rain = 0
KCO2 242257Z 08013KT 30/22 A2986 RMK A01 T03030220  RH  061%=      5-min Rain = 0
KCO2 242258Z 09012KT 30/22 A2986 RMK A01 T03030220  RH  061%=      5-min Rain = 0
KCO2 242259Z 09013KT 30/22 A2986 RMK A01 T03020220  RH  062%=      5-min Rain = 0
KCO2 242300Z 09012KT 30/22 A2986 RMK A01 T03020221  RH  062%=      5-min Rain = 0
KCO2 242301Z 08012KT 30/22 A2986 RMK A01 T03010221  RH  062%=      5-min Rain = 0
KCO2 242302Z 09012KT 30/22 A2986 RMK A01 T03010221  RH  062%=      5-min Rain = 0
KCO2 242303Z 08010KT 30/22 A2986 RMK A01 T03000221  RH  062%=      5-min Rain = 0
KCO2 242304Z 08011KT 30/22 A2986 RMK A01 T03000221  RH  063%=      5-min Rain = 0
KCO2 242305Z 08011KT 30/22 A2986 RMK A01 T02990221  RH  063%=      5-min Rain = 0
KCO2 242306Z 08011KT 30/22 A2986 RMK A01 T02990222  RH  063%=      5-min Rain = 0
KCO2 242307Z 08012KT 30/22 A2986 RMK A01 T02980221  RH  063%=      5-min Rain = 0
KCO2 242308Z 08013KT 30/22 A2986 RMK A01 T02980222  RH  063%=      5-min Rain = 0
KCO2 242309Z 08015KT 30/22 A2986 RMK A01 T02980221  RH  064%=      5-min Rain = 0
KCO2 242310Z 08013KT 30/22 A2987 RMK A01 T02980222  RH  064%=      5-min Rain = 0
KCO2 242311Z 08013KT 30/22 A2987 RMK A01 T02970222  RH  064%=      5-min Rain = 0
KCO2 242312Z 08015KT 30/22 A2987 RMK A01 T02970222  RH  064%=      5-min Rain = 0
KCO2 242313Z 08015KT 30/22 A2987 RMK A01 T02970222  RH  064%=      5-min Rain = 0
KCO2 242314Z 07013KT 30/22 A2987 RMK A01 T02960222  RH  064%=      5-min Rain = 0
KCO2 242315Z 08014KT 30/22 A2987 RMK A01 T02960223  RH  065%=      5-min Rain = 0
KCO2 242316Z 08015KT 30/22 A2987 RMK A01 T02960223  RH  065%=      5-min Rain = 0
KCO2 242317Z 08012KT 30/22 A2987 RMK A01 T02950223  RH  065%=      5-min Rain = 0
KCO2 242318Z 08012KT 30/22 A2987 RMK A01 T02950223  RH  065%=      5-min Rain = 0
KCO2 242319Z 07013KT 29/22 A2987 RMK A01 T02940223  RH  065%=      5-min Rain = 0
KCO2 242320Z 07016KT 29/22 A2987 RMK A01 T02940223  RH  066%=      5-min Rain = 0
KCO2 242321Z 07015KT 29/22 A2987 RMK A01 T02930222  RH  066%=      5-min Rain = 0
KCO2 242322Z 07012KT 29/22 A2987 RMK A01 T02940223  RH  066%=      5-min Rain = 0
KCO2 242323Z 07013KT 29/22 A2987 RMK A01 T02930223  RH  066%=      5-min Rain = 0
KCO2 242324Z 06016KT 29/22 A2987 RMK A01 T02930223  RH  066%=      5-min Rain = 0
KCO2 242325Z 06011G16KT 29/22 A2987 RMK A01 T02930223  RH  066%=      5-min Rain = 0
KCO2 242326Z 06015KT 29/22 A2987 RMK A01 T02920223  RH  066%=      5-min Rain = 0
KCO2 242327Z 06014KT 29/22 A2987 RMK A01 T02920223  RH  066%=      5-min Rain = 0
KCO2 242328Z 06016KT 29/22 A2987 RMK A01 T02920223  RH  066%=      5-min Rain = 0
KCO2 242329Z 07014KT 29/22 A2987 RMK A01 T02920223  RH  066%=      5-min Rain = 0
KCO2 242330Z 07017KT 29/22 A2986 RMK A01 T02920223  RH  066%=      5-min Rain = 0
KCO2 242331Z 07018KT 29/22 A2986 RMK A01 T02910223  RH  067%=      5-min Rain = 0
KCO2 242332Z 08017KT 29/22 A2986 RMK A01 T02910223  RH  067%=      5-min Rain = 0
KCO2 242333Z 07018KT 29/22 A2985 RMK A01 T02900223  RH  067%=      5-min Rain = 0
KCO2 242334Z 07018KT 29/22 A2985 RMK A01 T02900223  RH  067%=      5-min Rain = 0
KCO2 242335Z 08018KT 29/22 A2984 RMK A01 T02900223  RH  067%=      5-min Rain = 0
KCO2 242336Z 08018G23KT 29/22 A2984 RMK A01 T02900222  RH  067%=      5-min Rain = 0
KCO2 242337Z 07019KT 29/22 A2985 RMK A01 T02900223  RH  067%=      5-min Rain = 0
KCO2 242338Z 07018KT 29/22 A2985 RMK A01 T02900223  RH  067%=      5-min Rain = 0
KCO2 242339Z 07013KT 29/22 A2985 RMK A01 T02890223  RH  067%=      5-min Rain = 0
KCO2 242340Z 07016KT 29/22 A2985 RMK A01 T02890223  RH  067%=      5-min Rain = 0
KCO2 242341Z 07015KT 29/22 A2986 RMK A01 T02890223  RH  067%=      5-min Rain = 0
KCO2 242342Z 07015KT 29/22 A2986 RMK A01 T02890223  RH  068%=      5-min Rain = 0
KCO2 242343Z 07012KT 29/22 A2985 RMK A01 T02890223  RH  068%=      5-min Rain = 0
KCO2 242344Z 07011KT 29/22 A2985 RMK A01 T02880223  RH  068%=      5-min Rain = 0
KCO2 242345Z 07012KT 29/22 A2985 RMK A01 T02880223  RH  068%=      5-min Rain = 0
KCO2 242346Z 07013KT 29/22 A2985 RMK A01 T02880223  RH  068%=      5-min Rain = 0
KCO2 242347Z 08013KT 29/22 A2985 RMK A01 T02880223  RH  068%=      5-min Rain = 0
KCO2 242348Z 08012KT 29/22 A2985 RMK A01 T02880223  RH  068%=      5-min Rain = 0
KCO2 242349Z 09013KT 29/22 A2985 RMK A01 T02870223  RH  068%=      5-min Rain = 0
KCO2 242350Z 09013KT 29/22 A2985 RMK A01 T02870223  RH  068%=      5-min Rain = 0
KCO2 242351Z 09015KT 29/22 A2985 RMK A01 T02870224  RH  068%=      5-min Rain = 0
KCO2 242352Z 09014KT 29/22 A2984 RMK A01 T02870224  RH  069%=      5-min Rain = 0
KCO2 242353Z 09016KT 29/22 A2984 RMK A01 T02870224  RH  069%=      5-min Rain = 0
KCO2 242354Z 09015KT 29/22 A2984 RMK A01 T02870224  RH  069%=      5-min Rain = 0
KCO2 242355Z 10012KT 29/22 A2984 RMK A01 T02870223  RH  069%=      5-min Rain = 0
KCO2 242356Z 10014KT 29/22 A2984 RMK A01 T02870224  RH  069%=      5-min Rain = 0
KCO2 242357Z 10015G20KT 29/22 A2984 RMK A01 T02860224  RH  069%=      5-min Rain = 0
KCO2 242358Z 10017KT 29/22 A2984 RMK A01 T02860224  RH  069%=      5-min Rain = 0
KCO2 242359Z 11016G21KT 29/22 A2985 RMK A01 T02860224  RH  069%=      5-min Rain = 0
KCO2 250000Z 10014G20KT 29/22 A2985 RMK A01 T02860224  RH  069%=      5-min Rain = 0
KCO2 250001Z 10015KT 29/22 A2984 RMK A01 T02860224  RH  069%=      5-min Rain = 0
KCO2 250002Z 10016KT 29/22 A2984 RMK A01 T02860224  RH  069%=      5-min Rain = 0
KCO2 250003Z 11013G18KT 29/22 A2984 RMK A01 T02860224  RH  069%=      5-min Rain = 0
KCO2 250004Z 10015KT 29/23 A2984 RMK A01 T02860225  RH  069%=      5-min Rain = 0
KCO2 250005Z 11014G20KT 29/22 A2984 RMK A01 T02860224  RH  069%=      5-min Rain = 0
KCO2 250006Z 11016G21KT 29/23 A2984 RMK A01 T02860225  RH  070%=      5-min Rain = 0
KCO2 250007Z 11016KT 29/23 A2984 RMK A01 T02860225  RH  069%=      5-min Rain = 0
KCO2 250008Z 10013KT 29/23 A2984 RMK A01 T02860225  RH  069%=      5-min Rain = 0
KCO2 250009Z 10017KT 29/23 A2984 RMK A01 T02860225  RH  069%=      5-min Rain = 0
KCO2 250010Z 10015KT 29/23 A2985 RMK A01 T02870225  RH  069%=      5-min Rain = 0
KCO2 250011Z 10014KT 29/23 A2985 RMK A01 T02870225  RH  069%=      5-min Rain = 0
KCO2 250012Z 09012KT 29/23 A2986 RMK A01 T02870225  RH  069%=      5-min Rain = 0
KCO2 250013Z 10013KT 29/23 A2986 RMK A01 T02860225  RH  069%=      5-min Rain = 0
KCO2 250014Z 09013G18KT 29/23 A2986 RMK A01 T02870225  RH  069%=      5-min Rain = 0
KCO2 250015Z 10013KT 29/23 A2986 RMK A01 T02860225  RH  069%=      5-min Rain = 0
KCO2 250016Z 09013KT 29/23 A2986 RMK A01 T02870225  RH  069%=      5-min Rain = 0
KCO2 250017Z 10011KT 29/23 A2987 RMK A01 T02860225  RH  070%=      5-min Rain = 0
KCO2 250018Z 10012KT 29/23 A2987 RMK A01 T02870226  RH  070%=      5-min Rain = 0
KCO2 250019Z 10014KT 29/23 A2987 RMK A01 T02860226  RH  070%=      5-min Rain = 0
KCO2 250020Z 10012KT 29/23 A2987 RMK A01 T02860226  RH  070%=      5-min Rain = 0
KCO2 250021Z 10011KT 29/23 A2988 RMK A01 T02850225  RH  070%=      5-min Rain = 0
KCO2 250022Z 09012KT 29/23 A2988 RMK A01 T02850226  RH  070%=      5-min Rain = 0
KCO2 250023Z 09013KT 29/23 A2988 RMK A01 T02850225  RH  070%=      5-min Rain = 0
KCO2 250024Z 09010KT 29/23 A2988 RMK A01 T02860226  RH  070%=      5-min Rain = 0
KCO2 250025Z 09011KT 29/23 A2989 RMK A01 T02860226  RH  070%=      5-min Rain = 0
KCO2 250026Z 09011KT 29/23 A2989 RMK A01 T02860226  RH  070%=      5-min Rain = 0
KCO2 250027Z 09011KT 29/23 A2988 RMK A01 T02860226  RH  070%=      5-min Rain = 0
KCO2 250028Z 08008KT 29/23 A2988 RMK A01 T02860226  RH  070%=      5-min Rain = 0
KCO2 250029Z 08008KT 29/23 A2988 RMK A01 T02870226  RH  070%=      5-min Rain = 0
KCO2 250030Z 08008KT 29/23 A2987 RMK A01 T02870227  RH  070%=      5-min Rain = 0
KCO2 250031Z 08010KT 29/23 A2987 RMK A01 T02870227  RH  070%=      5-min Rain = 0
KCO2 250032Z 09010KT 29/23 A2987 RMK A01 T02880226  RH  069%=      5-min Rain = 0
KCO2 250033Z 08009KT 29/23 A2987 RMK A01 T02880227  RH  069%=      5-min Rain = 0
KCO2 250034Z 08011KT 29/23 A2987 RMK A01 T02890227  RH  069%=      5-min Rain = 0
KCO2 250035Z 08010KT 29/23 A2987 RMK A01 T02890227  RH  069%=      5-min Rain = 0
KCO2 250036Z 08009KT 29/23 A2988 RMK A01 T02880226  RH  069%=      5-min Rain = 0
KCO2 250037Z 08008KT 29/23 A2988 RMK A01 T02880227  RH  069%=      5-min Rain = 0
KCO2 250038Z 09007KT 29/23 A2988 RMK A01 T02880227  RH  070%=      5-min Rain = 0
KCO2 250039Z 08010KT 29/23 A2988 RMK A01 T02880228  RH  070%=      5-min Rain = 0
KCO2 250040Z 08008KT 29/23 A2988 RMK A01 T02880227  RH  069%=      5-min Rain = 0
KCO2 250041Z 08007KT 29/23 A2988 RMK A01 T02870227  RH  070%=      5-min Rain = 0
KCO2 250042Z 10007KT 29/23 A2988 RMK A01 T02870228  RH  070%=      5-min Rain = 0
KCO2 250043Z 09006KT 29/23 A2988 RMK A01 T02870228  RH  070%=      5-min Rain = 0
KCO2 250044Z 10006KT 29/23 A2988 RMK A01 T02870228  RH  070%=      5-min Rain = 0
KCO2 250045Z 10007KT 29/23 A2988 RMK A01 T02870228  RH  070%=      5-min Rain = 0
KCO2 250046Z 11007KT 29/23 A2988 RMK A01 T02880227  RH  070%=      5-min Rain = 0
KCO2 250047Z 12006KT 29/23 A2988 RMK A01 T02870226  RH  070%=      5-min Rain = 0
KCO2 250048Z 11008KT 29/22 A2988 RMK A01 T02880222  RH  068%=      5-min Rain = 0
KCO2 250049Z 12010G15KT 29/22 A2988 RMK A01 T02880219  RH  066%=      5-min Rain = 0
KCO2 250050Z 12011KT 29/21 A2987 RMK A01 T02880209  RH  062%=      5-min Rain = 0
KCO2 250051Z 12011KT 29/21 A2987 RMK A01 T02890208  RH  061%=      5-min Rain = 0
KCO2 250052Z 12012KT 29/21 A2987 RMK A01 T02900205  RH  060%=      5-min Rain = 0
KCO2 250053Z 13011KT 29/20 A2987 RMK A01 T02910204  RH  060%=      5-min Rain = 0
KCO2 250054Z 12011KT 29/20 A2987 RMK A01 T02910203  RH  059%=      5-min Rain = 0
KCO2 250055Z 13010KT 29/20 A2987 RMK A01 T02900202  RH  059%=      5-min Rain = 0
KCO2 250056Z 12011KT 29/20 A2987 RMK A01 T02910202  RH  059%=      5-min Rain = 0
KCO2 250057Z 11010KT 29/20 A2987 RMK A01 T02910202  RH  059%=      5-min Rain = 0
KCO2 250058Z 11011KT 29/20 A2986 RMK A01 T02900202  RH  059%=      5-min Rain = 0
KCO2 250059Z 12008KT 29/20 A2986 RMK A01 T02890202  RH  059%=      5-min Rain = 0
KCO2 250100Z 12011KT 29/20 A2986 RMK A01 T02890201  RH  059%=      5-min Rain = 0
KCO2 250101Z 11014KT 29/20 A2986 RMK A01 T02880198  RH  058%=      5-min Rain = 0
KCO2 250102Z 13013G18KT 29/20 A2986 RMK A01 T02880197  RH  058%=      5-min Rain = 0
KCO2 250103Z 13016KT 29/19 A2986 RMK A01 T02880194  RH  057%=      5-min Rain = 0
KCO2 250104Z 12016G21KT 29/19 A2986 RMK A01 T02880191  RH  056%=      5-min Rain = 0
KCO2 250105Z 12012KT 29/19 A2986 RMK A01 T02870191  RH  056%=      5-min Rain = 0
KCO2 250106Z 13014KT 29/19 A2986 RMK A01 T02880192  RH  056%=      5-min Rain = 0
KCO2 250107Z 13016KT 29/19 A2986 RMK A01 T02870192  RH  056%=      5-min Rain = 0
KCO2 250108Z 13016KT 29/19 A2986 RMK A01 T02870191  RH  056%=      5-min Rain = 0
KCO2 250109Z 12013KT 29/19 A2986 RMK A01 T02870192  RH  056%=      5-min Rain = 0
KCO2 250110Z 13012KT 29/19 A2986 RMK A01 T02870192  RH  057%=      5-min Rain = 0
KCO2 250111Z 13013KT 29/19 A2986 RMK A01 T02870192  RH  057%=      5-min Rain = 0
KCO2 250112Z 13015KT 29/19 A2986 RMK A01 T02860193  RH  057%=      5-min Rain = 0
KCO2 250113Z 12014KT 29/19 A2986 RMK A01 T02860193  RH  057%=      5-min Rain = 0
KCO2 250114Z 13013KT 29/19 A2986 RMK A01 T02850193  RH  057%=      5-min Rain = 0
KCO2 250115Z 13013KT 29/19 A2986 RMK A01 T02850194  RH  058%=      5-min Rain = 0
KCO2 250116Z 14012KT 28/20 A2986 RMK A01 T02840197  RH  059%=      5-min Rain = 0
KCO2 250117Z 13011KT 28/20 A2986 RMK A01 T02830202  RH  062%=      5-min Rain = 0
KCO2 250118Z 14009KT 28/20 A2986 RMK A01 T02820203  RH  062%=      5-min Rain = 0
KCO2 250119Z 13010KT 28/20 A2986 RMK A01 T02810204  RH  063%=      5-min Rain = 0
KCO2 250120Z 14013KT 28/20 A2986 RMK A01 T02800202  RH  063%=      5-min Rain = 0
KCO2 250121Z 13012KT 28/20 A2986 RMK A01 T02800203  RH  063%=      5-min Rain = 0
KCO2 250122Z 13012KT 28/20 A2986 RMK A01 T02790200  RH  062%=      5-min Rain = 0
KCO2 250123Z 13012KT 28/20 A2986 RMK A01 T02790198  RH  061%=      5-min Rain = 0
KCO2 250124Z 13014KT 28/20 A2986 RMK A01 T02790196  RH  061%=      5-min Rain = 0
KCO2 250125Z 13011KT 28/20 A2986 RMK A01 T02790196  RH  061%=      5-min Rain = 0
KCO2 250126Z 14011KT 28/20 A2986 RMK A01 T02790197  RH  061%=      5-min Rain = 0
KCO2 250127Z 13011KT 28/20 A2986 RMK A01 T02790198  RH  061%=      5-min Rain = 0
KCO2 250128Z 12013KT 28/20 A2987 RMK A01 T02780198  RH  061%=      5-min Rain = 0
KCO2 250129Z 13009KT 28/20 A2986 RMK A01 T02780198  RH  062%=      5-min Rain = 0
KCO2 250130Z 13012KT 28/20 A2986 RMK A01 T02780198  RH  062%=      5-min Rain = 0
KCO2 250131Z 13013KT 28/20 A2986 RMK A01 T02780200  RH  062%=      5-min Rain = 0
KCO2 250132Z 12011KT 28/20 A2986 RMK A01 T02770200  RH  063%=      5-min Rain = 0
KCO2 250133Z 12012G17KT 28/20 A2986 RMK A01 T02760200  RH  063%=      5-min Rain = 0
KCO2 250134Z 12013KT 28/20 A2986 RMK A01 T02760202  RH  064%=      5-min Rain = 0
KCO2 250135Z 12012KT 28/20 A2986 RMK A01 T02750203  RH  065%=      5-min Rain = 0
KCO2 250136Z 12011KT 28/20 A2986 RMK A01 T02750204  RH  065%=      5-min Rain = 0
KCO2 250137Z 12012KT 27/20 A2987 RMK A01 T02740204  RH  066%=      5-min Rain = 0
KCO2 250138Z 12012KT 27/21 A2987 RMK A01 T02740205  RH  066%=      5-min Rain = 0
KCO2 250139Z 12011KT 27/21 A2987 RMK A01 T02730206  RH  067%=      5-min Rain = 0
KCO2 250140Z 12012KT 27/21 A2987 RMK A01 T02730207  RH  067%=      5-min Rain = 0
KCO2 250141Z 12010KT 27/21 A2987 RMK A01 T02730207  RH  067%=      5-min Rain = 0
KCO2 250142Z 12010KT 27/21 A2987 RMK A01 T02720208  RH  068%=      5-min Rain = 0
KCO2 250143Z 12009KT 27/21 A2987 RMK A01 T02720208  RH  068%=      5-min Rain = 0
KCO2 250144Z 12010KT 27/21 A2987 RMK A01 T02710209  RH  068%=      5-min Rain = 0
KCO2 250145Z 12010KT 27/21 A2987 RMK A01 T02710209  RH  069%=      5-min Rain = 0
KCO2 250146Z 11009KT 27/21 A2986 RMK A01 T02710209  RH  069%=      5-min Rain = 0
KCO2 250147Z 11011KT 27/21 A2986 RMK A01 T02700210  RH  070%=      5-min Rain = 0
KCO2 250148Z 11010KT 27/21 A2986 RMK A01 T02700211  RH  070%=      5-min Rain = 0
KCO2 250149Z 11010KT 27/21 A2986 RMK A01 T02690212  RH  071%=      5-min Rain = 0
KCO2 250150Z 10009KT 27/21 A2986 RMK A01 T02680213  RH  072%=      5-min Rain = 0
KCO2 250151Z 10011KT 27/21 A2986 RMK A01 T02670214  RH  072%=      5-min Rain = 0
KCO2 250152Z 09010G15KT 27/21 A2986 RMK A01 T02670214  RH  073%=      5-min Rain = 0
KCO2 250153Z 09012KT 27/21 A2985 RMK A01 T02670213  RH  072%=      5-min Rain = 0
KCO2 250154Z 09010KT 27/21 A2986 RMK A01 T02670213  RH  072%=      5-min Rain = 0
KCO2 250155Z 09013KT 27/22 A2986 RMK A01 T02670215  RH  073%=      5-min Rain = 0
KCO2 250156Z 09012KT 27/22 A2986 RMK A01 T02660216  RH  074%=      5-min Rain = 0
KCO2 250157Z 09013KT 27/22 A2986 RMK A01 T02650217  RH  075%=      5-min Rain = 0
KCO2 250158Z 08011KT 27/22 A2986 RMK A01 T02650217  RH  075%=      5-min Rain = 0
KCO2 250159Z 09013KT 27/22 A2986 RMK A01 T02650218  RH  075%=      5-min Rain = 0
KCO2 250200Z 09012KT 27/22 A2986 RMK A01 T02650218  RH  076%=      5-min Rain = 0
KCO2 250201Z 09011KT 27/22 A2986 RMK A01 T02650218  RH  076%=      5-min Rain = 0
KCO2 250202Z 09011KT 26/22 A2986 RMK A01 T02640218  RH  076%=      5-min Rain = 0
KCO2 250203Z 09010KT 26/22 A2986 RMK A01 T02640219  RH  076%=      5-min Rain = 0
KCO2 250204Z 09011KT 26/22 A2986 RMK A01 T02640219  RH  076%=      5-min Rain = 0
KCO2 250205Z 11010KT 26/22 A2986 RMK A01 T02640219  RH  076%=      5-min Rain = 0
KCO2 250206Z 11009KT 26/22 A2986 RMK A01 T02640219  RH  076%=      5-min Rain = 0
KCO2 250207Z 11009KT 26/22 A2987 RMK A01 T02640220  RH  077%=      5-min Rain = 0
KCO2 250208Z 13011KT 26/22 A2987 RMK A01 T02640220  RH  077%=      5-min Rain = 0
KCO2 250209Z 13009KT 26/22 A2987 RMK A01 T02640221  RH  077%=      5-min Rain = 0
KCO2 250210Z 14009KT 26/22 A2987 RMK A01 T02640222  RH  077%=      5-min Rain = 0
KCO2 250211Z 14007KT 26/22 A2987 RMK A01 T02630222  RH  078%=      5-min Rain = 0
KCO2 250212Z 14009KT 26/22 A2987 RMK A01 T02620222  RH  078%=      5-min Rain = 0
KCO2 250213Z 14007KT 26/22 A2987 RMK A01 T02620222  RH  078%=      5-min Rain = 0
KCO2 250214Z 15008KT 26/22 A2987 RMK A01 T02620222  RH  079%=      5-min Rain = 0
KCO2 250215Z 15007KT 26/22 A2988 RMK A01 T02620223  RH  079%=      5-min Rain = 0
KCO2 250216Z 15007KT 26/22 A2988 RMK A01 T02620223  RH  079%=      5-min Rain = 0
KCO2 250217Z 15009KT 26/22 A2988 RMK A01 T02610223  RH  079%=      5-min Rain = 0
KCO2 250218Z 14010KT 26/22 A2988 RMK A01 T02610223  RH  079%=      5-min Rain = 0
KCO2 250219Z 14012KT 26/22 A2988 RMK A01 T02610221  RH  078%=      5-min Rain = 0
KCO2 250220Z 13010KT 26/22 A2988 RMK A01 T02620221  RH  078%=      5-min Rain = 0
KCO2 250221Z 13013KT 26/22 A2988 RMK A01 T02620220  RH  077%=      5-min Rain = 0
KCO2 250222Z 13012KT 26/22 A2988 RMK A01 T02630218  RH  076%=      5-min Rain = 0
KCO2 250223Z 13013KT 26/22 A2988 RMK A01 T02640219  RH  076%=      5-min Rain = 0
KCO2 250224Z 13012KT 26/22 A2988 RMK A01 T02640217  RH  076%=      5-min Rain = 0
KCO2 250225Z 14011KT 26/22 A2988 RMK A01 T02640217  RH  075%=      5-min Rain = 0
KCO2 250226Z 13011KT 26/22 A2988 RMK A01 T02640216  RH  075%=      5-min Rain = 0
KCO2 250227Z 14012G18KT 26/21 A2988 RMK A01 T02640214  RH  074%=      5-min Rain = 0
KCO2 250228Z 14012G17KT 26/21 A2988 RMK A01 T02640214  RH  074%=      5-min Rain = 0
KCO2 250229Z 15014KT 27/21 A2988 RMK A01 T02650214  RH  074%=      5-min Rain = 0
KCO2 250230Z 14012KT 27/21 A2988 RMK A01 T02650214  RH  074%=      5-min Rain = 0
KCO2 250231Z 15011G16KT 27/21 A2988 RMK A01 T02650214  RH  074%=      5-min Rain = 0
KCO2 250232Z 14013G18KT 26/22 A2988 RMK A01 T02640215  RH  074%=      5-min Rain = 0
KCO2 250233Z 15012KT 26/22 A2988 RMK A01 T02640215  RH  075%=      5-min Rain = 0
KCO2 250234Z 15012KT 26/22 A2988 RMK A01 T02640216  RH  075%=      5-min Rain = 0
KCO2 250235Z 14011KT 26/22 A2989 RMK A01 T02630217  RH  075%=      5-min Rain = 0
KCO2 250236Z 14010KT 26/22 A2989 RMK A01 T02620217  RH  076%=      5-min Rain = 0
KCO2 250237Z 14009KT 26/22 A2989 RMK A01 T02620217  RH  076%=      5-min Rain = 0
KCO2 250238Z 15008KT 26/22 A2989 RMK A01 T02610218  RH  077%=      5-min Rain = 0
KCO2 250239Z 15012KT 26/22 A2989 RMK A01 T02600218  RH  077%=      5-min Rain = 0
KCO2 250240Z 15012KT 26/22 A299 RMK A01 T02600218  RH  078%=      5-min Rain = 0
KCO2 250241Z 15014KT 26/22 A299 RMK A01 T02600219  RH  078%=      5-min Rain = 0
KCO2 250242Z 17016KT 26/22 A299 RMK A01 T02600219  RH  078%=      5-min Rain = 0
KCO2 250243Z 17019KT 26/22 A299 RMK A01 T02590219  RH  078%=      5-min Rain = 0
KCO2 250244Z 17017KT 26/22 A299 RMK A01 T02580219  RH  079%=      5-min Rain = 0
KCO2 250245Z 18019G25KT 26/22 A2991 RMK A01 T02560216  RH  078%=      5-min Rain = 0
KCO2 250246Z 18018KT 25/21 A2991 RMK A01 T02530212  RH  078%=      5-min Rain = 0
KCO2 250247Z 18018G24KT 25/21 A2991 RMK A01 T02500206  RH  077%=      5-min Rain = 0
KCO2 250248Z 16017G23KT 25/20 A2991 RMK A01 T02460203  RH  077%=      5-min Rain = 0
KCO2 250249Z 16017KT 25/20 A2991 RMK A01 T02450201  RH  077%=      5-min Rain = 0
KCO2 250250Z 16016KT 24/20 A2991 RMK A01 T02430199  RH  076%=      5-min Rain = 0
KCO2 250251Z 16015G20KT 24/20 A2991 RMK A01 T02420197  RH  076%=      5-min Rain = 0
KCO2 250252Z 17012KT 24/20 A2992 RMK A01 T02410196  RH  076%=      5-min Rain = 0
KCO2 250253Z 17014KT 24/20 A2992 RMK A01 T02400195  RH  076%=      5-min Rain = 0
KCO2 250254Z 16015KT 24/19 A2992 RMK A01 T02390193  RH  075%=      5-min Rain = 0
KCO2 250255Z 16016KT 24/19 A2992 RMK A01 T02390188  RH  073%=      5-min Rain = 0
KCO2 250256Z 16016KT 24/18 A2992 RMK A01 T02380182  RH  071%=      5-min Rain = 0
KCO2 250257Z 15016KT 24/18 A2992 RMK A01 T02380179  RH  070%=      5-min Rain = 0
KCO2 250258Z 16016KT 24/18 A2991 RMK A01 T02370175  RH  068%=      5-min Rain = 0
KCO2 250259Z 16015KT 24/18 A2991 RMK A01 T02370175  RH  068%=      5-min Rain = 0
KCO2 250300Z 16011KT 24/18 A2992 RMK A01 T02370178  RH  070%=      5-min Rain = 0
KCO2 250301Z 16010KT 24/18 A2992 RMK A01 T02350179  RH  070%=      5-min Rain = 0
KCO2 250302Z 16011KT 23/18 A2992 RMK A01 T02340179  RH  071%=      5-min Rain = 0
KCO2 250303Z 17012KT 23/18 A2992 RMK A01 T02330180  RH  072%=      5-min Rain = 0
KCO2 250304Z 16014KT 23/18 A2992 RMK A01 T02330179  RH  072%=      5-min Rain = 0
KCO2 250305Z 16012KT 23/18 A2992 RMK A01 T02330178  RH  071%=      5-min Rain = 0
KCO2 250306Z 16014G19KT 23/18 A2992 RMK A01 T02320176  RH  071%=      5-min Rain = 0
KCO2 250307Z 16016KT 23/17 A2992 RMK A01 T02320171  RH  069%=      5-min Rain = 0
KCO2 250308Z 16017KT 23/17 A2992 RMK A01 T02320168  RH  067%=      5-min Rain = 0
KCO2 250309Z 16017KT 23/17 A2992 RMK A01 T02320165  RH  066%=      5-min Rain = 0
KCO2 250310Z 16014KT 23/17 A2992 RMK A01 T02330165  RH  066%=      5-min Rain = 0
KCO2 250311Z 16011KT 23/17 A2992 RMK A01 T02320166  RH  066%=      5-min Rain = 0
KCO2 250312Z 16010KT 23/17 A2992 RMK A01 T02310166  RH  067%=      5-min Rain = 0
KCO2 250313Z 16012KT 23/17 A2992 RMK A01 T02300166  RH  067%=      5-min Rain = 0
KCO2 250314Z 16012KT 23/16 A2993 RMK A01 T02290164  RH  067%=      5-min Rain = 0
KCO2 250315Z 16013KT 23/16 A2993 RMK A01 T02280162  RH  066%=      5-min Rain = 0
KCO2 250316Z 16013KT 23/16 A2993 RMK A01 T02280162  RH  066%=      5-min Rain = 0
KCO2 250317Z 16013KT 23/16 A2993 RMK A01 T02280159  RH  065%=      5-min Rain = 0
KCO2 250318Z 16014KT 23/16 A2993 RMK A01 T02270159  RH  065%=      5-min Rain = 0
KCO2 250319Z 16013KT 23/16 A2993 RMK A01 T02270157  RH  065%=      5-min Rain = 0
KCO2 250320Z 17012KT 23/16 A2993 RMK A01 T02270157  RH  065%=      5-min Rain = 0
KCO2 250321Z 16011KT 23/16 A2993 RMK A01 T02260157  RH  065%=      5-min Rain = 0
KCO2 250322Z 17011KT 23/16 A2993 RMK A01 T02250157  RH  065%=      5-min Rain = 0
KCO2 250323Z 16013KT 22/16 A2993 RMK A01 T02240157  RH  066%=      5-min Rain = 0
KCO2 250324Z 17013KT 22/16 A2993 RMK A01 T02240156  RH  066%=      5-min Rain = 0
KCO2 250325Z 17011KT 22/16 A2993 RMK A01 T02240156  RH  065%=      5-min Rain = 0
KCO2 250326Z 16011KT 22/16 A2993 RMK A01 T02230156  RH  066%=      5-min Rain = 0
KCO2 250327Z 17009KT 22/16 A2993 RMK A01 T02230156  RH  066%=      5-min Rain = 0
KCO2 250328Z 16009KT 22/16 A2994 RMK A01 T02220156  RH  066%=      5-min Rain = 0
KCO2 250329Z 16010KT 22/16 A2994 RMK A01 T02210155  RH  066%=      5-min Rain = 0
KCO2 250330Z 16009KT 22/16 A2994 RMK A01 T02210156  RH  066%=      5-min Rain = 0
KCO2 250331Z 16009KT 22/16 A2994 RMK A01 T02210156  RH  067%=      5-min Rain = 0
KCO2 250332Z 17010KT 22/16 A2994 RMK A01 T02200155  RH  066%=      5-min Rain = 0
KCO2 250333Z 16008KT 22/16 A2994 RMK A01 T02200155  RH  066%=      5-min Rain = 0
KCO2 250334Z 17009KT 22/15 A2994 RMK A01 T02190154  RH  066%=      5-min Rain = 0
KCO2 250335Z 16011KT 22/15 A2994 RMK A01 T02190153  RH  066%=      5-min Rain = 0
KCO2 250336Z 16011KT 22/15 A2994 RMK A01 T02190153  RH  066%=      5-min Rain = 0
KCO2 250337Z 17010KT 22/15 A2994 RMK A01 T02190152  RH  066%=      5-min Rain = 0
KCO2 250338Z 17011KT 22/15 A2994 RMK A01 T02190153  RH  066%=      5-min Rain = 0
KCO2 250339Z 17011KT 22/15 A2994 RMK A01 T02190153  RH  066%=      5-min Rain = 0
KCO2 250340Z 16012KT 22/15 A2994 RMK A01 T02190152  RH  066%=      5-min Rain = 0
KCO2 250341Z 17010KT 22/15 A2994 RMK A01 T02190153  RH  066%=      5-min Rain = 0
KCO2 250342Z 16009KT 22/15 A2994 RMK A01 T02190153  RH  066%=      5-min Rain = 0
KCO2 250343Z 16010KT 22/15 A2994 RMK A01 T02190153  RH  066%=      5-min Rain = 0
KCO2 250344Z 16010KT 22/15 A2994 RMK A01 T02180153  RH  066%=      5-min Rain = 0
KCO2 250345Z 16009KT 22/15 A2994 RMK A01 T02180153  RH  067%=      5-min Rain = 0
KCO2 250346Z 15010KT 22/15 A2994 RMK A01 T02180154  RH  067%=      5-min Rain = 0
KCO2 250347Z 15010KT 22/15 A2994 RMK A01 T02170154  RH  067%=      5-min Rain = 0
KCO2 250348Z 16009KT 22/15 A2995 RMK A01 T02170154  RH  067%=      5-min Rain = 0
KCO2 250349Z 16008KT 22/15 A2995 RMK A01 T02170154  RH  067%=      5-min Rain = 0
KCO2 250350Z 16010KT 22/15 A2995 RMK A01 T02160154  RH  068%=      5-min Rain = 0
KCO2 250351Z 17008G14KT 22/15 A2995 RMK A01 T02160154  RH  068%=      5-min Rain = 0
KCO2 250352Z 17012KT 22/16 A2995 RMK A01 T02160155  RH  068%=      5-min Rain = 0
KCO2 250353Z 16011KT 22/15 A2995 RMK A01 T02150154  RH  068%=      5-min Rain = 0
KCO2 250354Z 17010KT 22/15 A2995 RMK A01 T02160154  RH  068%=      5-min Rain = 0
KCO2 250355Z 16010KT 22/16 A2995 RMK A01 T02160155  RH  068%=      5-min Rain = 0
KCO2 250356Z 15008KT 22/16 A2995 RMK A01 T02160155  RH  068%=      5-min Rain = 0
KCO2 250357Z 16009KT 22/16 A2994 RMK A01 T02160155  RH  068%=      5-min Rain = 0
KCO2 250358Z 15010KT 22/16 A2994 RMK A01 T02150155  RH  069%=      5-min Rain = 0
KCO2 250359Z 15009KT 22/16 A2995 RMK A01 T02150155  RH  069%=      5-min Rain = 0
KCO2 250400Z 16009KT 22/16 A2995 RMK A01 T02150155  RH  069%=      5-min Rain = 0
KCO2 250401Z 16009KT 21/16 A2995 RMK A01 T02140155  RH  069%=      5-min Rain = 0
KCO2 250402Z 16008KT 21/16 A2995 RMK A01 T02140155  RH  069%=      5-min Rain = 0
KCO2 250403Z 16009KT 21/16 A2995 RMK A01 T02140155  RH  069%=      5-min Rain = 0
KCO2 250404Z 16009KT 21/16 A2995 RMK A01 T02140156  RH  069%=      5-min Rain = 0
KCO2 250405Z 17008KT 21/16 A2995 RMK A01 T02140156  RH  069%=      5-min Rain = 0
KCO2 250406Z 16007KT 21/16 A2996 RMK A01 T02140156  RH  069%=      5-min Rain = 0
KCO2 250407Z 16007KT 21/16 A2996 RMK A01 T02140156  RH  069%=      5-min Rain = 0
KCO2 250408Z 15005KT 21/16 A2996 RMK A01 T02140156  RH  070%=      5-min Rain = 0
KCO2 250409Z 15005KT 21/16 A2996 RMK A01 T02140156  RH  070%=      5-min Rain = 0
KCO2 250410Z 15005KT 21/16 A2997 RMK A01 T02140156  RH  070%=      5-min Rain = 0
KCO2 250411Z 11003KT 21/16 A2997 RMK A01 T02140156  RH  069%=      5-min Rain = 0
KCO2 250412Z 04002KT 21/16 A2997 RMK A01 T02140156  RH  070%=      5-min Rain = 0
KCO2 250413Z 03003KT 21/16 A2998 RMK A01 T02140156  RH  070%=      5-min Rain = 0
KCO2 250414Z 02008KT 21/16 A2999 RMK A01 T02140156  RH  070%=      5-min Rain = 0
KCO2 250415Z 01012KT 21/16 A30 RMK A01 T02140157  RH  070%=      5-min Rain = 0
KCO2 250416Z 01016KT 21/16 A30 RMK A01 T02140158  RH  070%=      5-min Rain = 0
KCO2 250417Z 01015KT 21/16 A3001 RMK A01 T02140159  RH  071%=      5-min Rain = 0
KCO2 250418Z 01016KT 21/16 A3001 RMK A01 T02140160  RH  071%=      5-min Rain = 0
KCO2 250419Z 01014KT 22/16 A3001 RMK A01 T02150159  RH  071%=      5-min Rain = 0
KCO2 250420Z 01016KT 22/16 A3001 RMK A01 T02170160  RH  070%=      5-min Rain = 0
KCO2 250421Z 01018KT 22/16 A3001 RMK A01 T02190158  RH  069%=      5-min Rain = 0
KCO2 250422Z 01017KT 22/16 A3001 RMK A01 T02210157  RH  067%=      5-min Rain = 0
KCO2 250423Z 02015KT 22/16 A3002 RMK A01 T02230157  RH  066%=      5-min Rain = 0
KCO2 250424Z 03013KT 22/16 A3002 RMK A01 T02240156  RH  065%=      5-min Rain = 0
KCO2 250425Z 03012KT 23/16 A3001 RMK A01 T02250156  RH  065%=      5-min Rain = 0
KCO2 250426Z 04009KT 23/15 A3001 RMK A01 T02260154  RH  064%=      5-min Rain = 0
KCO2 250427Z 04009KT 23/15 A3001 RMK A01 T02270152  RH  063%=      5-min Rain = 0
KCO2 250428Z 03007KT 23/15 A3001 RMK A01 T02280150  RH  062%=      5-min Rain = 0
KCO2 250429Z 06006KT 23/15 A3001 RMK A01 T02290150  RH  061%=      5-min Rain = 0
KCO2 250430Z 04008KT 23/15 A3001 RMK A01 T02290151  RH  061%=      5-min Rain = 0
KCO2 250431Z 05007KT 23/15 A3001 RMK A01 T02300150  RH  061%=      5-min Rain = 0
KCO2 250432Z 04007KT 23/15 A3001 RMK A01 T02300150  RH  060%=      5-min Rain = 0
KCO2 250433Z 02009KT 23/15 A3001 RMK A01 T02310150  RH  060%=      5-min Rain = 0
KCO2 250434Z 02007KT 23/15 A3001 RMK A01 T02320151  RH  060%=      5-min Rain = 0
KCO2 250435Z 03007KT 23/15 A3001 RMK A01 T02320151  RH  060%=      5-min Rain = 0
KCO2 250436Z 05007KT 23/15 A3001 RMK A01 T02330151  RH  060%=      5-min Rain = 0
KCO2 250437Z 05007KT 23/15 A3001 RMK A01 T02340150  RH  059%=      5-min Rain = 0
KCO2 250438Z 07006KT 24/15 A3001 RMK A01 T02350150  RH  059%=      5-min Rain = 0
KCO2 250439Z 07008KT 24/15 A3001 RMK A01 T02360150  RH  058%=      5-min Rain = 0
KCO2 250440Z 08006KT 24/15 A3001 RMK A01 T02370150  RH  058%=      5-min Rain = 0
KCO2 250441Z 09007KT 24/15 A30 RMK A01 T02380151  RH  058%=      5-min Rain = 0
KCO2 250442Z 10006KT 24/15 A30 RMK A01 T02370152  RH  059%=      5-min Rain = 0
KCO2 250443Z 11007KT 24/15 A30 RMK A01 T02370153  RH  059%=      5-min Rain = 0
KCO2 250444Z 11007KT 24/15 A30 RMK A01 T02370154  RH  060%=      5-min Rain = 0
KCO2 250445Z 11006KT 24/15 A2999 RMK A01 T02350154  RH  060%=      5-min Rain = 0
KCO2 250446Z 11007KT 24/15 A2999 RMK A01 T02350154  RH  061%=      5-min Rain = 0
KCO2 250447Z 11007KT 23/15 A2999 RMK A01 T02340154  RH  061%=      5-min Rain = 0
KCO2 250448Z 11006KT 23/15 A2999 RMK A01 T02340154  RH  061%=      5-min Rain = 0
KCO2 250449Z 09008KT 23/15 A2999 RMK A01 T02340154  RH  061%=      5-min Rain = 0
KCO2 250450Z 11009KT 24/15 A2998 RMK A01 T02350154  RH  061%=      5-min Rain = 0
KCO2 250451Z 12009KT 24/15 A2998 RMK A01 T02360154  RH  060%=      5-min Rain = 0
KCO2 250452Z 13007KT 24/15 A2998 RMK A01 T02360154  RH  060%=      5-min Rain = 0
KCO2 250453Z 13008KT 24/16 A2998 RMK A01 T02370155  RH  060%=      5-min Rain = 0
KCO2 250454Z 14005KT 24/16 A2998 RMK A01 T02360155  RH  060%=      5-min Rain = 0
KCO2 250455Z 15005KT 24/16 A2998 RMK A01 T02350155  RH  061%=      5-min Rain = 0
KCO2 250456Z 16005KT 23/16 A2998 RMK A01 T02330155  RH  061%=      5-min Rain = 0
KCO2 250457Z 17005KT 23/16 A2998 RMK A01 T02320155  RH  062%=      5-min Rain = 0
KCO2 250458Z 17006KT 23/16 A2998 RMK A01 T02310155  RH  063%=      5-min Rain = 0
KCO2 250459Z 16007KT 23/15 A2998 RMK A01 T02290154  RH  063%=      5-min Rain = 0

Page generated in 0.1952 seconds.